Time,TemperatureF,DewpointF,PressureIn,WindDirection,WindDirectionDegrees,WindSpeedMPH,WindSpeedGustMPH,Humidity,HourlyPrecipIn,Conditions,Clouds,dailyrainin,SoftwareType,DateUTC
2013-10-21 00:09:00,-999.0,-99.9,-100.00,WNW,298,6.7,8.9,-999,-99.99,,,-99.99,HOBO +U30 +Weather +,2013-10-21 05:09:00,
2013-10-21 00:19:00,-999.0,-99.9,-100.00,NW,306,10.7,15.9,-999,-99.99,,,-99.99,HOBO +U30 +Weather +,2013-10-21 05:19:00,
2013-10-21 00:20:00,-999.0,-99.9,-100.00,NW,306,7.8,11.9,-999,-99.99,,,-99.99,HOBO +U30 +Weather +,2013-10-21 05:20:00,
2013-10-21 00:29:00,-999.0,-99.9,-100.00,NW,305,6.7,8.9,-999,-99.99,,,-99.99,HOBO +U30 +Weather +,2013-10-21 05:29:00,
2013-10-21 00:30:00,-999.0,-99.9,-100.00,NW,320,7.8,13.0,-999,-99.99,,,-99.99,HOBO +U30 +Weather +,2013-10-21 05:30:00,
2013-10-21 00:39:00,-999.0,-99.9,-100.00,NW,314,8.9,13.0,-999,-99.99,,,-99.99,HOBO +U30 +Weather +,2013-10-21 05:39:00,
2013-10-21 00:40:00,-999.0,-99.9,-100.00,NW,310,9.6,13.0,-999,-99.99,,,-99.99,HOBO +U30 +Weather +,2013-10-21 05:40:00,
2013-10-21 00:50:00,-999.0,-99.9,-100.00,NW,319,9.6,12.3,-999,-99.99,,,-99.99,HOBO +U30 +Weather +,2013-10-21 05:50:00,
2013-10-21 00:51:00,-999.0,-99.9,-100.00,NW,313,11.2,17.4,-999,-99.99,,,-99.99,HOBO +U30 +Weather +,2013-10-21 05:51:00,
2013-10-21 01:01:00,-999.0,-99.9,-100.00,WNW,298,10.7,14.1,-999,-99.99,,,-99.99,HOBO +U30 +Weather +,2013-10-21 06:01:00,
2013-10-21 01:10:00,-999.0,-99.9,-100.00,WNW,293,6.7,9.6,-999,-99.99,,,-99.99,HOBO +U30 +Weather +,2013-10-21 06:10:00,
2013-10-21 01:20:00,-999.0,-99.9,-100.00,NW,307,9.6,12.3,-999,-99.99,,,-99.99,HOBO +U30 +Weather +,2013-10-21 06:20:00,
2013-10-21 01:21:00,-999.0,-99.9,-100.00,NW,305,10.1,13.0,-999,-99.99,,,-99.99,HOBO +U30 +Weather +,2013-10-21 06:21:00,
2013-10-21 01:31:00,-999.0,-99.9,-100.00,WNW,300,8.9,10.7,-999,-99.99,,,-99.99,HOBO +U30 +Weather +,2013-10-21 06:31:00,
2013-10-21 01:41:00,-999.0,-99.9,-100.00,NW,307,7.8,12.3,-999,-99.99,,,-99.99,HOBO +U30 +Weather +,2013-10-21 06:41:00,
2013-10-21 01:51:00,-999.0,-99.9,-100.00,NW,307,11.2,14.5,-999,-99.99,,,-99.99,HOBO +U30 +Weather +,2013-10-21 06:51:00,
2013-10-21 01:52:00,-999.0,-99.9,-100.00,NW,317,10.7,15.2,-999,-99.99,,,-99.99,HOBO +U30 +Weather +,2013-10-21 06:52:00,
2013-10-21 02:02:00,-999.0,-99.9,-100.00,NW,317,8.9,11.9,-999,-99.99,,,-99.99,HOBO +U30 +Weather +,2013-10-21 07:02:00,
2013-10-21 02:12:00,-999.0,-99.9,-100.00,NW,310,6.7,8.9,-999,-99.99,,,-99.99,HOBO +U30 +Weather +,2013-10-21 07:12:00,
2013-10-21 02:13:00,-999.0,-99.9,-100.00,NW,313,8.5,10.7,-999,-99.99,,,-99.99,HOBO +U30 +Weather +,2013-10-21 07:13:00,
2013-10-21 02:23:00,-999.0,-99.9,-100.00,NW,305,7.4,10.1,-999,-99.99,,,-99.99,HOBO +U30 +Weather +,2013-10-21 07:23:00,
2013-10-21 02:33:00,-999.0,-99.9,-100.00,NW,305,6.7,9.6,-999,-99.99,,,-99.99,HOBO +U30 +Weather +,2013-10-21 07:33:00,
2013-10-21 02:34:00,-999.0,-99.9,-100.00,NW,317,7.4,9.6,-999,-99.99,,,-99.99,HOBO +U30 +Weather +,2013-10-21 07:34:00,
2013-10-21 02:44:00,-999.0,-99.9,-100.00,WNW,303,6.3,8.5,-999,-99.99,,,-99.99,HOBO +U30 +Weather +,2013-10-21 07:44:00,
2013-10-21 02:54:00,-999.0,-99.9,-100.00,WNW,303,7.4,9.6,-999,-99.99,,,-99.99,HOBO +U30 +Weather +,2013-10-21 07:54:00,
2013-10-21 02:55:00,-999.0,-99.9,-100.00,WNW,291,8.9,10.7,-999,-99.99,,,-99.99,HOBO +U30 +Weather +,2013-10-21 07:55:00,
2013-10-21 03:05:00,-999.0,-99.9,-100.00,WNW,285,8.9,11.2,-999,-99.99,,,-99.99,HOBO +U30 +Weather +,2013-10-21 08:05:00,
2013-10-21 03:15:00,-999.0,-99.9,-100.00,WNW,296,7.4,10.7,-999,-99.99,,,-99.99,HOBO +U30 +Weather +,2013-10-21 08:15:00,
2013-10-21 03:16:00,-999.0,-99.9,-100.00,WNW,286,7.4,9.6,-999,-99.99,,,-99.99,HOBO +U30 +Weather +,2013-10-21 08:16:00,
2013-10-21 03:26:00,-999.0,-99.9,-100.00,WNW,295,6.3,8.5,-999,-99.99,,,-99.99,HOBO +U30 +Weather +,2013-10-21 08:26:00,
2013-10-21 03:27:00,-999.0,-99.9,-100.00,WNW,292,6.7,8.9,-999,-99.99,,,-99.99,HOBO +U30 +Weather +,2013-10-21 08:27:00,
2013-10-21 03:37:00,-999.0,-99.9,-100.00,WNW,285,5.6,7.8,-999,-99.99,,,-99.99,HOBO +U30 +Weather +,2013-10-21 08:37:00,
2013-10-21 03:38:00,-999.0,-99.9,-100.00,WNW,288,4.5,7.4,-999,-99.99,,,-99.99,HOBO +U30 +Weather +,2013-10-21 08:38:00,
2013-10-21 03:47:00,-999.0,-99.9,-100.00,WNW,302,8.9,11.2,-999,-99.99,,,-99.99,HOBO +U30 +Weather +,2013-10-21 08:47:00,
2013-10-21 03:48:00,-999.0,-99.9,-100.00,WNW,302,6.3,8.5,-999,-99.99,,,-99.99,HOBO +U30 +Weather +,2013-10-21 08:48:00,
2013-10-21 03:58:00,-999.0,-99.9,-100.00,WNW,298,10.1,11.9,-999,-99.99,,,-99.99,HOBO +U30 +Weather +,2013-10-21 08:58:00,
2013-10-21 03:59:00,-999.0,-99.9,-100.00,NW,307,9.6,14.1,-999,-99.99,,,-99.99,HOBO +U30 +Weather +,2013-10-21 08:59:00,
2013-10-21 04:09:00,-999.0,-99.9,-100.00,WNW,298,7.4,9.6,-999,-99.99,,,-99.99,HOBO +U30 +Weather +,2013-10-21 09:09:00,
2013-10-21 04:10:00,-999.0,-99.9,-100.00,WNW,300,7.4,10.7,-999,-99.99,,,-99.99,HOBO +U30 +Weather +,2013-10-21 09:10:00,
2013-10-21 04:20:00,-999.0,-99.9,-100.00,WNW,302,5.1,6.7,-999,-99.99,,,-99.99,HOBO +U30 +Weather +,2013-10-21 09:20:00,
2013-10-21 04:21:00,-999.0,-99.9,-100.00,WNW,303,6.3,8.9,-999,-99.99,,,-99.99,HOBO +U30 +Weather +,2013-10-21 09:21:00,
2013-10-21 04:30:00,-999.0,-99.9,-100.00,WNW,302,5.1,8.5,-999,-99.99,,,-99.99,HOBO +U30 +Weather +,2013-10-21 09:30:00,
2013-10-21 04:31:00,-999.0,-99.9,-100.00,NW,306,6.3,8.9,-999,-99.99,,,-99.99,HOBO +U30 +Weather +,2013-10-21 09:31:00,
2013-10-21 04:41:00,-999.0,-99.9,-100.00,WNW,289,5.6,7.8,-999,-99.99,,,-99.99,HOBO +U30 +Weather +,2013-10-21 09:41:00,
2013-10-21 04:42:00,-999.0,-99.9,-100.00,WNW,296,6.3,7.8,-999,-99.99,,,-99.99,HOBO +U30 +Weather +,2013-10-21 09:42:00,
2013-10-21 04:52:00,-999.0,-99.9,-100.00,WNW,296,6.7,8.9,-999,-99.99,,,-99.99,HOBO +U30 +Weather +,2013-10-21 09:52:00,
2013-10-21 04:53:00,-999.0,-99.9,-100.00,WNW,284,6.3,8.5,-999,-99.99,,,-99.99,HOBO +U30 +Weather +,2013-10-21 09:53:00,
2013-10-21 05:03:00,-999.0,-99.9,-100.00,WNW,286,5.6,8.5,-999,-99.99,,,-99.99,HOBO +U30 +Weather +,2013-10-21 10:03:00,
2013-10-21 05:04:00,-999.0,-99.9,-100.00,WNW,302,11.9,14.1,-999,-99.99,,,-99.99,HOBO +U30 +Weather +,2013-10-21 10:04:00,
2013-10-21 05:14:00,-999.0,-99.9,-100.00,WNW,299,8.9,11.2,-999,-99.99,,,-99.99,HOBO +U30 +Weather +,2013-10-21 10:14:00,
2013-10-21 05:15:00,-999.0,-99.9,-100.00,WNW,295,10.1,13.0,-999,-99.99,,,-99.99,HOBO +U30 +Weather +,2013-10-21 10:15:00,
2013-10-21 05:25:00,-999.0,-99.9,-100.00,NW,305,9.6,11.9,-999,-99.99,,,-99.99,HOBO +U30 +Weather +,2013-10-21 10:25:00,
2013-10-21 05:26:00,-999.0,-99.9,-100.00,NW,314,10.7,14.1,-999,-99.99,,,-99.99,HOBO +U30 +Weather +,2013-10-21 10:26:00,
2013-10-21 05:36:00,-999.0,-99.9,-100.00,NW,306,8.9,15.9,-999,-99.99,,,-99.99,HOBO +U30 +Weather +,2013-10-21 10:36:00,
2013-10-21 05:46:00,-999.0,-99.9,-100.00,NW,316,6.3,8.9,-999,-99.99,,,-99.99,HOBO +U30 +Weather +,2013-10-21 10:46:00,
2013-10-21 05:56:00,-999.0,-99.9,-100.00,WNW,302,13.4,16.3,-999,-99.99,,,-99.99,HOBO +U30 +Weather +,2013-10-21 10:56:00,
2013-10-21 06:06:00,-999.0,-99.9,-100.00,WNW,298,14.1,17.4,-999,-99.99,,,-99.99,HOBO +U30 +Weather +,2013-10-21 11:06:00,
2013-10-21 06:16:00,-999.0,-99.9,-100.00,WNW,298,10.1,13.4,-999,-99.99,,,-99.99,HOBO +U30 +Weather +,2013-10-21 11:16:00,
2013-10-21 06:26:00,-999.0,-99.9,-100.00,WNW,296,8.5,10.1,-999,-99.99,,,-99.99,HOBO +U30 +Weather +,2013-10-21 11:26:00,
2013-10-21 06:36:00,-999.0,-99.9,-100.00,NW,319,10.7,14.1,-999,-99.99,,,-99.99,HOBO +U30 +Weather +,2013-10-21 11:36:00,
2013-10-21 06:46:00,-999.0,-99.9,-100.00,NW,313,8.5,12.3,-999,-99.99,,,-99.99,HOBO +U30 +Weather +,2013-10-21 11:46:00,
2013-10-21 06:56:00,-999.0,-99.9,-100.00,NW,310,7.8,10.7,-999,-99.99,,,-99.99,HOBO +U30 +Weather +,2013-10-21 11:56:00,
2013-10-21 07:06:00,-999.0,-99.9,-100.00,NW,309,8.5,10.7,-999,-99.99,,,-99.99,HOBO +U30 +Weather +,2013-10-21 12:06:00,
2013-10-21 07:16:00,-999.0,-99.9,-100.00,WNW,300,5.6,8.9,-999,-99.99,,,-99.99,HOBO +U30 +Weather +,2013-10-21 12:16:00,
2013-10-21 07:26:00,-999.0,-99.9,-100.00,WNW,293,6.7,10.1,-999,-99.99,,,-99.99,HOBO +U30 +Weather +,2013-10-21 12:26:00,
2013-10-21 07:27:00,-999.0,-99.9,-100.00,WNW,302,5.6,7.8,-999,-99.99,,,-99.99,HOBO +U30 +Weather +,2013-10-21 12:27:00,
2013-10-21 07:37:00,-999.0,-99.9,-100.00,WNW,298,5.1,6.7,-999,-99.99,,,-99.99,HOBO +U30 +Weather +,2013-10-21 12:37:00,
2013-10-21 07:38:00,-999.0,-99.9,-100.00,WNW,300,5.6,7.4,-999,-99.99,,,-99.99,HOBO +U30 +Weather +,2013-10-21 12:38:00,
2013-10-21 07:47:00,-999.0,-99.9,-100.00,WNW,286,4.0,6.3,-999,-99.99,,,-99.99,HOBO +U30 +Weather +,2013-10-21 12:47:00,
2013-10-21 07:48:00,-999.0,-99.9,-100.00,WNW,289,4.0,5.6,-999,-99.99,,,-99.99,HOBO +U30 +Weather +,2013-10-21 12:48:00,
2013-10-21 07:57:00,-999.0,-99.9,-100.00,WNW,288,4.5,6.7,-999,-99.99,,,-99.99,HOBO +U30 +Weather +,2013-10-21 12:57:00,
2013-10-21 07:58:00,-999.0,-99.9,-100.00,WNW,285,5.6,7.4,-999,-99.99,,,-99.99,HOBO +U30 +Weather +,2013-10-21 12:58:00,
2013-10-21 08:08:00,-999.0,-99.9,-100.00,WNW,295,5.6,7.8,-999,-99.99,,,-99.99,HOBO +U30 +Weather +,2013-10-21 13:08:00,
2013-10-21 08:09:00,-999.0,-99.9,-100.00,WNW,291,5.6,7.8,-999,-99.99,,,-99.99,HOBO +U30 +Weather +,2013-10-21 13:09:00,
2013-10-21 08:10:00,-999.0,-99.9,-100.00,WNW,299,5.1,7.8,-999,-99.99,,,-99.99,HOBO +U30 +Weather +,2013-10-21 13:10:00,
2013-10-21 08:11:00,-999.0,-99.9,-100.00,WNW,296,7.4,10.7,-999,-99.99,,,-99.99,HOBO +U30 +Weather +,2013-10-21 13:11:00,
2013-10-21 08:12:00,-999.0,-99.9,-100.00,WNW,295,6.7,9.6,-999,-99.99,,,-99.99,HOBO +U30 +Weather +,2013-10-21 13:12:00,
2013-10-21 08:13:00,-999.0,-99.9,-100.00,WNW,296,8.9,11.9,-999,-99.99,,,-99.99,HOBO +U30 +Weather +,2013-10-21 13:13:00,
2013-10-21 08:14:00,-999.0,-99.9,-100.00,WNW,302,8.9,13.0,-999,-99.99,,,-99.99,HOBO +U30 +Weather +,2013-10-21 13:14:00,
2013-10-21 08:15:00,-999.0,-99.9,-100.00,NW,307,8.9,13.0,-999,-99.99,,,-99.99,HOBO +U30 +Weather +,2013-10-21 13:15:00,
2013-10-21 08:16:00,-999.0,-99.9,-100.00,NW,305,7.4,9.6,-999,-99.99,,,-99.99,HOBO +U30 +Weather +,2013-10-21 13:16:00,
2013-10-21 08:17:00,-999.0,-99.9,-100.00,NW,306,7.8,11.9,-999,-99.99,,,-99.99,HOBO +U30 +Weather +,2013-10-21 13:17:00,
2013-10-21 08:18:00,-999.0,-99.9,-100.00,NW,310,8.5,11.9,-999,-99.99,,,-99.99,HOBO +U30 +Weather +,2013-10-21 13:18:00,
2013-10-21 08:28:00,-999.0,-99.9,-100.00,WNW,299,7.4,8.9,-999,-99.99,,,-99.99,HOBO +U30 +Weather +,2013-10-21 13:28:00,
2013-10-21 08:29:00,-999.0,-99.9,-100.00,WNW,293,6.7,8.5,-999,-99.99,,,-99.99,HOBO +U30 +Weather +,2013-10-21 13:29:00,
2013-10-21 08:30:00,-999.0,-99.9,-100.00,WNW,284,6.3,7.8,-999,-99.99,,,-99.99,HOBO +U30 +Weather +,2013-10-21 13:30:00,
2013-10-21 08:31:00,-999.0,-99.9,-100.00,WNW,299,7.8,11.2,-999,-99.99,,,-99.99,HOBO +U30 +Weather +,2013-10-21 13:31:00,
2013-10-21 08:32:00,-999.0,-99.9,-100.00,WNW,298,8.5,11.2,-999,-99.99,,,-99.99,HOBO +U30 +Weather +,2013-10-21 13:32:00,
2013-10-21 08:33:00,-999.0,-99.9,-100.00,WNW,299,7.4,9.6,-999,-99.99,,,-99.99,HOBO +U30 +Weather +,2013-10-21 13:33:00,
2013-10-21 08:34:00,-999.0,-99.9,-100.00,WNW,293,9.6,13.0,-999,-99.99,,,-99.99,HOBO +U30 +Weather +,2013-10-21 13:34:00,
2013-10-21 08:35:00,-999.0,-99.9,-100.00,WNW,289,9.6,12.3,-999,-99.99,,,-99.99,HOBO +U30 +Weather +,2013-10-21 13:35:00,
2013-10-21 08:36:00,-999.0,-99.9,-100.00,WNW,291,7.8,9.6,-999,-99.99,,,-99.99,HOBO +U30 +Weather +,2013-10-21 13:36:00,
2013-10-21 08:37:00,-999.0,-99.9,-100.00,WNW,299,7.8,11.2,-999,-99.99,,,-99.99,HOBO +U30 +Weather +,2013-10-21 13:37:00,
2013-10-21 08:38:00,-999.0,-99.9,-100.00,WNW,295,6.7,8.9,-999,-99.99,,,-99.99,HOBO +U30 +Weather +,2013-10-21 13:38:00,
2013-10-21 08:39:00,-999.0,-99.9,-100.00,WNW,292,7.8,11.2,-999,-99.99,,,-99.99,HOBO +U30 +Weather +,2013-10-21 13:39:00,
2013-10-21 08:40:00,-999.0,-99.9,-100.00,WNW,298,10.1,13.4,-999,-99.99,,,-99.99,HOBO +U30 +Weather +,2013-10-21 13:40:00,
2013-10-21 08:41:00,-999.0,-99.9,-100.00,WNW,296,7.8,11.9,-999,-99.99,,,-99.99,HOBO +U30 +Weather +,2013-10-21 13:41:00,
2013-10-21 08:42:00,-999.0,-99.9,-100.00,WNW,292,8.9,11.9,-999,-99.99,,,-99.99,HOBO +U30 +Weather +,2013-10-21 13:42:00,
2013-10-21 08:43:00,-999.0,-99.9,-100.00,WNW,298,6.3,8.9,-999,-99.99,,,-99.99,HOBO +U30 +Weather +,2013-10-21 13:43:00,
2013-10-21 08:44:00,-999.0,-99.9,-100.00,WNW,289,8.5,10.1,-999,-99.99,,,-99.99,HOBO +U30 +Weather +,2013-10-21 13:44:00,
2013-10-21 08:45:00,-999.0,-99.9,-100.00,WNW,295,7.4,9.6,-999,-99.99,,,-99.99,HOBO +U30 +Weather +,2013-10-21 13:45:00,
2013-10-21 08:46:00,-999.0,-99.9,-100.00,West,277,5.6,9.6,-999,-99.99,,,-99.99,HOBO +U30 +Weather +,2013-10-21 13:46:00,
2013-10-21 08:47:00,-999.0,-99.9,-100.00,WNW,286,6.3,8.9,-999,-99.99,,,-99.99,HOBO +U30 +Weather +,2013-10-21 13:47:00,
2013-10-21 08:48:00,-999.0,-99.9,-100.00,WNW,286,6.7,8.9,-999,-99.99,,,-99.99,HOBO +U30 +Weather +,2013-10-21 13:48:00,
2013-10-21 08:49:00,-999.0,-99.9,-100.00,WNW,291,7.4,9.6,-999,-99.99,,,-99.99,HOBO +U30 +Weather +,2013-10-21 13:49:00,
2013-10-21 08:50:00,-999.0,-99.9,-100.00,WNW,292,7.4,10.1,-999,-99.99,,,-99.99,HOBO +U30 +Weather +,2013-10-21 13:50:00,
2013-10-21 08:51:00,-999.0,-99.9,-100.00,WNW,302,8.9,13.4,-999,-99.99,,,-99.99,HOBO +U30 +Weather +,2013-10-21 13:51:00,
2013-10-21 08:52:00,-999.0,-99.9,-100.00,WNW,295,7.4,10.1,-999,-99.99,,,-99.99,HOBO +U30 +Weather +,2013-10-21 13:52:00,
2013-10-21 08:53:00,-999.0,-99.9,-100.00,WNW,285,5.6,8.9,-999,-99.99,,,-99.99,HOBO +U30 +Weather +,2013-10-21 13:53:00,
2013-10-21 08:54:00,-999.0,-99.9,-100.00,WNW,284,6.3,8.5,-999,-99.99,,,-99.99,HOBO +U30 +Weather +,2013-10-21 13:54:00,
2013-10-21 08:56:00,-999.0,-99.9,-100.00,WNW,298,5.1,7.4,-999,-99.99,,,-99.99,HOBO +U30 +Weather +,2013-10-21 13:56:00,
2013-10-21 08:57:00,-999.0,-99.9,-100.00,WNW,299,5.6,7.4,-999,-99.99,,,-99.99,HOBO +U30 +Weather +,2013-10-21 13:57:00,
2013-10-21 08:58:00,-999.0,-99.9,-100.00,WNW,288,5.6,7.8,-999,-99.99,,,-99.99,HOBO +U30 +Weather +,2013-10-21 13:58:00,
2013-10-21 08:59:00,-999.0,-99.9,-100.00,WNW,291,6.3,8.9,-999,-99.99,,,-99.99,HOBO +U30 +Weather +,2013-10-21 13:59:00,
2013-10-21 09:00:00,-999.0,-99.9,-100.00,WNW,284,5.6,9.6,-999,-99.99,,,-99.99,HOBO +U30 +Weather +,2013-10-21 14:00:00,
2013-10-21 09:01:00,-999.0,-99.9,-100.00,WNW,300,7.8,11.9,-999,-99.99,,,-99.99,HOBO +U30 +Weather +,2013-10-21 14:01:00,
2013-10-21 09:02:00,-999.0,-99.9,-100.00,WNW,300,6.3,8.9,-999,-99.99,,,-99.99,HOBO +U30 +Weather +,2013-10-21 14:02:00,
2013-10-21 09:03:00,-999.0,-99.9,-100.00,WNW,292,6.3,8.9,-999,-99.99,,,-99.99,HOBO +U30 +Weather +,2013-10-21 14:03:00,
2013-10-21 09:04:00,-999.0,-99.9,-100.00,WNW,289,7.4,8.5,-999,-99.99,,,-99.99,HOBO +U30 +Weather +,2013-10-21 14:04:00,
2013-10-21 09:05:00,-999.0,-99.9,-100.00,WNW,293,8.5,13.0,-999,-99.99,,,-99.99,HOBO +U30 +Weather +,2013-10-21 14:05:00,
2013-10-21 09:06:00,-999.0,-99.9,-100.00,WNW,300,6.3,8.9,-999,-99.99,,,-99.99,HOBO +U30 +Weather +,2013-10-21 14:06:00,
2013-10-21 09:07:00,-999.0,-99.9,-100.00,WNW,289,6.7,8.9,-999,-99.99,,,-99.99,HOBO +U30 +Weather +,2013-10-21 14:07:00,
2013-10-21 09:08:00,-999.0,-99.9,-100.00,WNW,289,6.3,8.5,-999,-99.99,,,-99.99,HOBO +U30 +Weather +,2013-10-21 14:08:00,
2013-10-21 09:09:00,-999.0,-99.9,-100.00,WNW,291,5.6,8.5,-999,-99.99,,,-99.99,HOBO +U30 +Weather +,2013-10-21 14:09:00,
2013-10-21 09:10:00,-999.0,-99.9,-100.00,WNW,302,7.8,9.6,-999,-99.99,,,-99.99,HOBO +U30 +Weather +,2013-10-21 14:10:00,
2013-10-21 09:11:00,-999.0,-99.9,-100.00,WNW,292,5.6,8.5,-999,-99.99,,,-99.99,HOBO +U30 +Weather +,2013-10-21 14:11:00,
2013-10-21 09:12:00,-999.0,-99.9,-100.00,WNW,300,7.8,10.7,-999,-99.99,,,-99.99,HOBO +U30 +Weather +,2013-10-21 14:12:00,
2013-10-21 09:13:00,-999.0,-99.9,-100.00,NW,305,11.2,14.5,-999,-99.99,,,-99.99,HOBO +U30 +Weather +,2013-10-21 14:13:00,
2013-10-21 09:14:00,-999.0,-99.9,-100.00,WNW,303,8.9,11.9,-999,-99.99,,,-99.99,HOBO +U30 +Weather +,2013-10-21 14:14:00,
2013-10-21 09:15:00,-999.0,-99.9,-100.00,WNW,303,8.5,11.9,-999,-99.99,,,-99.99,HOBO +U30 +Weather +,2013-10-21 14:15:00,
2013-10-21 09:16:00,-999.0,-99.9,-100.00,WNW,299,7.4,10.1,-999,-99.99,,,-99.99,HOBO +U30 +Weather +,2013-10-21 14:16:00,
2013-10-21 09:17:00,-999.0,-99.9,-100.00,WNW,296,6.7,8.9,-999,-99.99,,,-99.99,HOBO +U30 +Weather +,2013-10-21 14:17:00,
2013-10-21 09:18:00,-999.0,-99.9,-100.00,WNW,302,5.6,7.4,-999,-99.99,,,-99.99,HOBO +U30 +Weather +,2013-10-21 14:18:00,
2013-10-21 09:19:00,-999.0,-99.9,-100.00,WNW,303,7.4,10.1,-999,-99.99,,,-99.99,HOBO +U30 +Weather +,2013-10-21 14:19:00,
2013-10-21 09:20:00,-999.0,-99.9,-100.00,WNW,298,6.7,8.9,-999,-99.99,,,-99.99,HOBO +U30 +Weather +,2013-10-21 14:20:00,
2013-10-21 09:21:00,-999.0,-99.9,-100.00,WNW,299,5.6,8.9,-999,-99.99,,,-99.99,HOBO +U30 +Weather +,2013-10-21 14:21:00,
2013-10-21 09:22:00,-999.0,-99.9,-100.00,WNW,298,6.3,7.8,-999,-99.99,,,-99.99,HOBO +U30 +Weather +,2013-10-21 14:22:00,
2013-10-21 09:23:00,-999.0,-99.9,-100.00,NW,305,6.3,8.5,-999,-99.99,,,-99.99,HOBO +U30 +Weather +,2013-10-21 14:23:00,
2013-10-21 09:24:00,-999.0,-99.9,-100.00,NW,305,7.8,10.7,-999,-99.99,,,-99.99,HOBO +U30 +Weather +,2013-10-21 14:24:00,
2013-10-21 09:25:00,-999.0,-99.9,-100.00,NW,306,8.5,10.7,-999,-99.99,,,-99.99,HOBO +U30 +Weather +,2013-10-21 14:25:00,
2013-10-21 09:26:00,-999.0,-99.9,-100.00,NW,307,8.5,10.7,-999,-99.99,,,-99.99,HOBO +U30 +Weather +,2013-10-21 14:26:00,
2013-10-21 09:27:00,-999.0,-99.9,-100.00,NW,319,8.5,11.9,-999,-99.99,,,-99.99,HOBO +U30 +Weather +,2013-10-21 14:27:00,
2013-10-21 09:28:00,-999.0,-99.9,-100.00,NW,305,7.4,8.9,-999,-99.99,,,-99.99,HOBO +U30 +Weather +,2013-10-21 14:28:00,
2013-10-21 09:29:00,-999.0,-99.9,-100.00,NW,316,8.5,14.1,-999,-99.99,,,-99.99,HOBO +U30 +Weather +,2013-10-21 14:29:00,
2013-10-21 09:30:00,-999.0,-99.9,-100.00,NW,319,12.3,15.9,-999,-99.99,,,-99.99,HOBO +U30 +Weather +,2013-10-21 14:30:00,
2013-10-21 09:31:00,-999.0,-99.9,-100.00,NW,306,8.9,11.2,-999,-99.99,,,-99.99,HOBO +U30 +Weather +,2013-10-21 14:31:00,
2013-10-21 09:32:00,-999.0,-99.9,-100.00,NW,309,9.6,13.0,-999,-99.99,,,-99.99,HOBO +U30 +Weather +,2013-10-21 14:32:00,
2013-10-21 09:33:00,-999.0,-99.9,-100.00,WNW,300,9.6,13.0,-999,-99.99,,,-99.99,HOBO +U30 +Weather +,2013-10-21 14:33:00,
2013-10-21 09:34:00,-999.0,-99.9,-100.00,WNW,302,8.5,11.2,-999,-99.99,,,-99.99,HOBO +U30 +Weather +,2013-10-21 14:34:00,
2013-10-21 09:35:00,-999.0,-99.9,-100.00,NW,307,10.1,12.3,-999,-99.99,,,-99.99,HOBO +U30 +Weather +,2013-10-21 14:35:00,
2013-10-21 09:36:00,-999.0,-99.9,-100.00,NW,317,10.1,14.1,-999,-99.99,,,-99.99,HOBO +U30 +Weather +,2013-10-21 14:36:00,
2013-10-21 09:37:00,-999.0,-99.9,-100.00,NNW,329,9.6,14.5,-999,-99.99,,,-99.99,HOBO +U30 +Weather +,2013-10-21 14:37:00,
2013-10-21 09:38:00,-999.0,-99.9,-100.00,NW,326,10.1,11.9,-999,-99.99,,,-99.99,HOBO +U30 +Weather +,2013-10-21 14:38:00,
2013-10-21 09:39:00,-999.0,-99.9,-100.00,NW,313,8.9,11.9,-999,-99.99,,,-99.99,HOBO +U30 +Weather +,2013-10-21 14:39:00,
2013-10-21 09:40:00,-999.0,-99.9,-100.00,NNW,329,7.4,10.1,-999,-99.99,,,-99.99,HOBO +U30 +Weather +,2013-10-21 14:40:00,
2013-10-21 09:41:00,-999.0,-99.9,-100.00,NNW,344,6.7,10.7,-999,-99.99,,,-99.99,HOBO +U30 +Weather +,2013-10-21 14:41:00,
2013-10-21 09:42:00,-999.0,-99.9,-100.00,NW,326,7.8,10.1,-999,-99.99,,,-99.99,HOBO +U30 +Weather +,2013-10-21 14:42:00,
2013-10-21 09:43:00,-999.0,-99.9,-100.00,NW,314,7.8,9.6,-999,-99.99,,,-99.99,HOBO +U30 +Weather +,2013-10-21 14:43:00,
2013-10-21 09:44:00,-999.0,-99.9,-100.00,NW,316,6.7,8.5,-999,-99.99,,,-99.99,HOBO +U30 +Weather +,2013-10-21 14:44:00,
2013-10-21 09:45:00,-999.0,-99.9,-100.00,NW,307,9.6,11.9,-999,-99.99,,,-99.99,HOBO +U30 +Weather +,2013-10-21 14:45:00,
2013-10-21 09:46:00,-999.0,-99.9,-100.00,NW,312,8.5,11.9,-999,-99.99,,,-99.99,HOBO +U30 +Weather +,2013-10-21 14:46:00,
2013-10-21 09:47:00,-999.0,-99.9,-100.00,NW,306,9.6,11.2,-999,-99.99,,,-99.99,HOBO +U30 +Weather +,2013-10-21 14:47:00,
2013-10-21 09:48:00,-999.0,-99.9,-100.00,NW,310,7.4,9.6,-999,-99.99,,,-99.99,HOBO +U30 +Weather +,2013-10-21 14:48:00,
2013-10-21 09:49:00,-999.0,-99.9,-100.00,NW,323,6.7,10.1,-999,-99.99,,,-99.99,HOBO +U30 +Weather +,2013-10-21 14:49:00,
2013-10-21 09:50:00,-999.0,-99.9,-100.00,NW,316,5.1,7.4,-999,-99.99,,,-99.99,HOBO +U30 +Weather +,2013-10-21 14:50:00,
2013-10-21 09:51:00,-999.0,-99.9,-100.00,NW,321,4.5,8.5,-999,-99.99,,,-99.99,HOBO +U30 +Weather +,2013-10-21 14:51:00,
2013-10-21 09:52:00,-999.0,-99.9,-100.00,NNW,327,6.7,9.6,-999,-99.99,,,-99.99,HOBO +U30 +Weather +,2013-10-21 14:52:00,
2013-10-21 09:53:00,-999.0,-99.9,-100.00,NW,326,7.8,11.9,-999,-99.99,,,-99.99,HOBO +U30 +Weather +,2013-10-21 14:53:00,
2013-10-21 09:54:00,-999.0,-99.9,-100.00,NNW,331,8.9,13.4,-999,-99.99,,,-99.99,HOBO +U30 +Weather +,2013-10-21 14:54:00,
2013-10-21 09:55:00,-999.0,-99.9,-100.00,NW,319,10.7,16.3,-999,-99.99,,,-99.99,HOBO +U30 +Weather +,2013-10-21 14:55:00,
2013-10-21 09:56:00,-999.0,-99.9,-100.00,NNW,329,11.2,15.9,-999,-99.99,,,-99.99,HOBO +U30 +Weather +,2013-10-21 14:56:00,
2013-10-21 09:57:00,-999.0,-99.9,-100.00,NW,326,10.7,13.4,-999,-99.99,,,-99.99,HOBO +U30 +Weather +,2013-10-21 14:57:00,
2013-10-21 09:58:00,-999.0,-99.9,-100.00,NW,324,9.6,13.4,-999,-99.99,,,-99.99,HOBO +U30 +Weather +,2013-10-21 14:58:00,
2013-10-21 09:59:00,-999.0,-99.9,-100.00,NNW,331,7.4,12.3,-999,-99.99,,,-99.99,HOBO +U30 +Weather +,2013-10-21 14:59:00,
2013-10-21 10:00:00,-999.0,-99.9,-100.00,NW,320,9.6,15.9,-999,-99.99,,,-99.99,HOBO +U30 +Weather +,2013-10-21 15:00:00,
2013-10-21 10:01:00,-999.0,-99.9,-100.00,NNW,338,8.5,13.4,-999,-99.99,,,-99.99,HOBO +U30 +Weather +,2013-10-21 15:01:00,
2013-10-21 10:02:00,-999.0,-99.9,-100.00,NW,326,12.3,16.3,-999,-99.99,,,-99.99,HOBO +U30 +Weather +,2013-10-21 15:02:00,
2013-10-21 10:03:00,-999.0,-99.9,-100.00,NW,321,9.6,12.3,-999,-99.99,,,-99.99,HOBO +U30 +Weather +,2013-10-21 15:03:00,
2013-10-21 10:04:00,-999.0,-99.9,-100.00,NNW,327,10.1,14.5,-999,-99.99,,,-99.99,HOBO +U30 +Weather +,2013-10-21 15:04:00,
2013-10-21 10:05:00,-999.0,-99.9,-100.00,NW,313,8.9,13.0,-999,-99.99,,,-99.99,HOBO +U30 +Weather +,2013-10-21 15:05:00,
2013-10-21 10:06:00,-999.0,-99.9,-100.00,NW,323,8.9,13.0,-999,-99.99,,,-99.99,HOBO +U30 +Weather +,2013-10-21 15:06:00,
2013-10-21 10:07:00,-999.0,-99.9,-100.00,NW,324,11.9,15.9,-999,-99.99,,,-99.99,HOBO +U30 +Weather +,2013-10-21 15:07:00,
2013-10-21 10:08:00,-999.0,-99.9,-100.00,NNW,331,9.6,17.0,-999,-99.99,,,-99.99,HOBO +U30 +Weather +,2013-10-21 15:08:00,
2013-10-21 10:09:00,-999.0,-99.9,-100.00,NW,319,10.1,14.1,-999,-99.99,,,-99.99,HOBO +U30 +Weather +,2013-10-21 15:09:00,
2013-10-21 10:10:00,-999.0,-99.9,-100.00,NW,324,10.7,15.9,-999,-99.99,,,-99.99,HOBO +U30 +Weather +,2013-10-21 15:10:00,
2013-10-21 10:11:00,-999.0,-99.9,-100.00,NW,321,10.1,16.3,-999,-99.99,,,-99.99,HOBO +U30 +Weather +,2013-10-21 15:11:00,
2013-10-21 10:12:00,-999.0,-99.9,-100.00,NW,321,12.3,16.3,-999,-99.99,,,-99.99,HOBO +U30 +Weather +,2013-10-21 15:12:00,
2013-10-21 10:13:00,-999.0,-99.9,-100.00,NW,321,8.9,12.3,-999,-99.99,,,-99.99,HOBO +U30 +Weather +,2013-10-21 15:13:00,
2013-10-21 10:14:00,-999.0,-99.9,-100.00,NW,320,8.9,11.2,-999,-99.99,,,-99.99,HOBO +U30 +Weather +,2013-10-21 15:14:00,
2013-10-21 10:15:00,-999.0,-99.9,-100.00,NW,321,10.1,15.9,-999,-99.99,,,-99.99,HOBO +U30 +Weather +,2013-10-21 15:15:00,
2013-10-21 10:16:00,-999.0,-99.9,-100.00,NW,323,9.6,12.3,-999,-99.99,,,-99.99,HOBO +U30 +Weather +,2013-10-21 15:16:00,
2013-10-21 10:17:00,-999.0,-99.9,-100.00,NW,317,10.1,13.0,-999,-99.99,,,-99.99,HOBO +U30 +Weather +,2013-10-21 15:17:00,
2013-10-21 10:18:00,-999.0,-99.9,-100.00,NW,320,8.9,12.3,-999,-99.99,,,-99.99,HOBO +U30 +Weather +,2013-10-21 15:18:00,
2013-10-21 10:19:00,-999.0,-99.9,-100.00,NW,326,8.9,12.3,-999,-99.99,,,-99.99,HOBO +U30 +Weather +,2013-10-21 15:19:00,
2013-10-21 10:20:00,-999.0,-99.9,-100.00,WNW,302,10.7,14.1,-999,-99.99,,,-99.99,HOBO +U30 +Weather +,2013-10-21 15:20:00,
2013-10-21 10:21:00,-999.0,-99.9,-100.00,NW,312,11.2,14.5,-999,-99.99,,,-99.99,HOBO +U30 +Weather +,2013-10-21 15:21:00,
2013-10-21 10:22:00,-999.0,-99.9,-100.00,NW,319,8.5,10.1,-999,-99.99,,,-99.99,HOBO +U30 +Weather +,2013-10-21 15:22:00,
2013-10-21 10:23:00,-999.0,-99.9,-100.00,NW,321,7.4,12.3,-999,-99.99,,,-99.99,HOBO +U30 +Weather +,2013-10-21 15:23:00,
2013-10-21 10:24:00,-999.0,-99.9,-100.00,NNW,331,8.5,14.1,-999,-99.99,,,-99.99,HOBO +U30 +Weather +,2013-10-21 15:24:00,
2013-10-21 10:25:00,-999.0,-99.9,-100.00,NW,316,10.7,13.4,-999,-99.99,,,-99.99,HOBO +U30 +Weather +,2013-10-21 15:25:00,
2013-10-21 10:26:00,-999.0,-99.9,-100.00,NW,323,10.7,14.1,-999,-99.99,,,-99.99,HOBO +U30 +Weather +,2013-10-21 15:26:00,
2013-10-21 10:27:00,-999.0,-99.9,-100.00,NW,326,6.3,8.5,-999,-99.99,,,-99.99,HOBO +U30 +Weather +,2013-10-21 15:27:00,
2013-10-21 10:28:00,-999.0,-99.9,-100.00,NW,323,8.9,11.2,-999,-99.99,,,-99.99,HOBO +U30 +Weather +,2013-10-21 15:28:00,
2013-10-21 10:29:00,-999.0,-99.9,-100.00,NW,314,8.5,13.0,-999,-99.99,,,-99.99,HOBO +U30 +Weather +,2013-10-21 15:29:00,
2013-10-21 10:30:00,-999.0,-99.9,-100.00,NW,321,6.3,7.4,-999,-99.99,,,-99.99,HOBO +U30 +Weather +,2013-10-21 15:30:00,
2013-10-21 10:31:00,-999.0,-99.9,-100.00,NNW,327,5.1,9.6,-999,-99.99,,,-99.99,HOBO +U30 +Weather +,2013-10-21 15:31:00,
2013-10-21 10:32:00,-999.0,-99.9,-100.00,NNW,333,5.6,10.7,-999,-99.99,,,-99.99,HOBO +U30 +Weather +,2013-10-21 15:32:00,
2013-10-21 10:33:00,-999.0,-99.9,-100.00,NNW,344,5.1,10.7,-999,-99.99,,,-99.99,HOBO +U30 +Weather +,2013-10-21 15:33:00,
2013-10-21 10:34:00,-999.0,-99.9,-100.00,NW,323,5.6,7.8,-999,-99.99,,,-99.99,HOBO +U30 +Weather +,2013-10-21 15:34:00,
2013-10-21 10:35:00,-999.0,-99.9,-100.00,NW,323,6.3,8.9,-999,-99.99,,,-99.99,HOBO +U30 +Weather +,2013-10-21 15:35:00,
2013-10-21 10:36:00,-999.0,-99.9,-100.00,NNW,331,4.5,7.8,-999,-99.99,,,-99.99,HOBO +U30 +Weather +,2013-10-21 15:36:00,
2013-10-21 10:37:00,-999.0,-99.9,-100.00,NNW,331,4.0,6.7,-999,-99.99,,,-99.99,HOBO +U30 +Weather +,2013-10-21 15:37:00,
2013-10-21 10:38:00,-999.0,-99.9,-100.00,NW,323,3.4,6.7,-999,-99.99,,,-99.99,HOBO +U30 +Weather +,2013-10-21 15:38:00,
2013-10-21 10:39:00,-999.0,-99.9,-100.00,NW,310,7.4,10.7,-999,-99.99,,,-99.99,HOBO +U30 +Weather +,2013-10-21 15:39:00,
2013-10-21 10:40:00,-999.0,-99.9,-100.00,NW,323,5.6,8.9,-999,-99.99,,,-99.99,HOBO +U30 +Weather +,2013-10-21 15:40:00,
2013-10-21 10:41:00,-999.0,-99.9,-100.00,NNW,330,2.9,6.3,-999,-99.99,,,-99.99,HOBO +U30 +Weather +,2013-10-21 15:41:00,
2013-10-21 10:42:00,-999.0,-99.9,-100.00,NW,314,7.4,11.2,-999,-99.99,,,-99.99,HOBO +U30 +Weather +,2013-10-21 15:42:00,
2013-10-21 10:43:00,-999.0,-99.9,-100.00,NNW,337,5.6,9.6,-999,-99.99,,,-99.99,HOBO +U30 +Weather +,2013-10-21 15:43:00,
2013-10-21 10:44:00,-999.0,-99.9,-100.00,NW,317,6.7,9.6,-999,-99.99,,,-99.99,HOBO +U30 +Weather +,2013-10-21 15:44:00,
2013-10-21 10:45:00,-999.0,-99.9,-100.00,NNW,333,5.1,8.9,-999,-99.99,,,-99.99,HOBO +U30 +Weather +,2013-10-21 15:45:00,
2013-10-21 10:46:00,-999.0,-99.9,-100.00,NNW,327,3.4,7.8,-999,-99.99,,,-99.99,HOBO +U30 +Weather +,2013-10-21 15:46:00,
2013-10-21 10:47:00,-999.0,-99.9,-100.00,NNW,330,7.4,10.7,-999,-99.99,,,-99.99,HOBO +U30 +Weather +,2013-10-21 15:47:00,
2013-10-21 10:48:00,-999.0,-99.9,-100.00,NNW,345,4.0,7.4,-999,-99.99,,,-99.99,HOBO +U30 +Weather +,2013-10-21 15:48:00,
2013-10-21 10:49:00,-999.0,-99.9,-100.00,NW,317,5.6,7.8,-999,-99.99,,,-99.99,HOBO +U30 +Weather +,2013-10-21 15:49:00,
2013-10-21 10:50:00,-999.0,-99.9,-100.00,NW,324,6.3,9.6,-999,-99.99,,,-99.99,HOBO +U30 +Weather +,2013-10-21 15:50:00,
2013-10-21 10:51:00,-999.0,-99.9,-100.00,NNW,329,8.5,13.0,-999,-99.99,,,-99.99,HOBO +U30 +Weather +,2013-10-21 15:51:00,
2013-10-21 10:52:00,-999.0,-99.9,-100.00,NNW,344,2.9,8.9,-999,-99.99,,,-99.99,HOBO +U30 +Weather +,2013-10-21 15:52:00,
2013-10-21 10:53:00,-999.0,-99.9,-100.00,NNW,329,4.5,7.8,-999,-99.99,,,-99.99,HOBO +U30 +Weather +,2013-10-21 15:53:00,
2013-10-21 10:54:00,-999.0,-99.9,-100.00,NW,324,4.5,7.4,-999,-99.99,,,-99.99,HOBO +U30 +Weather +,2013-10-21 15:54:00,
2013-10-21 10:55:00,-999.0,-99.9,-100.00,NW,319,7.4,9.6,-999,-99.99,,,-99.99,HOBO +U30 +Weather +,2013-10-21 15:55:00,
2013-10-21 10:56:00,-999.0,-99.9,-100.00,NNW,336,4.5,8.5,-999,-99.99,,,-99.99,HOBO +U30 +Weather +,2013-10-21 15:56:00,
2013-10-21 10:57:00,-999.0,-99.9,-100.00,NW,321,5.6,7.4,-999,-99.99,,,-99.99,HOBO +U30 +Weather +,2013-10-21 15:57:00,
2013-10-21 10:58:00,-999.0,-99.9,-100.00,NNW,327,5.1,7.8,-999,-99.99,,,-99.99,HOBO +U30 +Weather +,2013-10-21 15:58:00,
2013-10-21 10:59:00,-999.0,-99.9,-100.00,NW,320,6.3,8.5,-999,-99.99,,,-99.99,HOBO +U30 +Weather +,2013-10-21 15:59:00,
2013-10-21 11:00:00,-999.0,-99.9,-100.00,NNW,330,5.6,7.4,-999,-99.99,,,-99.99,HOBO +U30 +Weather +,2013-10-21 16:00:00,
2013-10-21 11:01:00,-999.0,-99.9,-100.00,NW,324,6.7,8.5,-999,-99.99,,,-99.99,HOBO +U30 +Weather +,2013-10-21 16:01:00,
2013-10-21 11:02:00,-999.0,-99.9,-100.00,NW,321,7.4,9.6,-999,-99.99,,,-99.99,HOBO +U30 +Weather +,2013-10-21 16:02:00,
2013-10-21 11:03:00,-999.0,-99.9,-100.00,NW,326,6.3,10.7,-999,-99.99,,,-99.99,HOBO +U30 +Weather +,2013-10-21 16:03:00,
2013-10-21 11:04:00,-999.0,-99.9,-100.00,NNW,336,5.1,10.1,-999,-99.99,,,-99.99,HOBO +U30 +Weather +,2013-10-21 16:04:00,
2013-10-21 11:05:00,-999.0,-99.9,-100.00,NW,324,8.5,10.7,-999,-99.99,,,-99.99,HOBO +U30 +Weather +,2013-10-21 16:05:00,
2013-10-21 11:06:00,-999.0,-99.9,-100.00,NW,316,7.4,9.6,-999,-99.99,,,-99.99,HOBO +U30 +Weather +,2013-10-21 16:06:00,
2013-10-21 11:07:00,-999.0,-99.9,-100.00,NW,312,7.4,10.1,-999,-99.99,,,-99.99,HOBO +U30 +Weather +,2013-10-21 16:07:00,
2013-10-21 11:08:00,-999.0,-99.9,-100.00,NW,316,10.1,13.4,-999,-99.99,,,-99.99,HOBO +U30 +Weather +,2013-10-21 16:08:00,
2013-10-21 11:09:00,-999.0,-99.9,-100.00,WNW,303,9.6,13.4,-999,-99.99,,,-99.99,HOBO +U30 +Weather +,2013-10-21 16:09:00,
2013-10-21 11:10:00,-999.0,-99.9,-100.00,NW,306,8.5,11.9,-999,-99.99,,,-99.99,HOBO +U30 +Weather +,2013-10-21 16:10:00,
2013-10-21 11:11:00,-999.0,-99.9,-100.00,NW,306,7.4,9.6,-999,-99.99,,,-99.99,HOBO +U30 +Weather +,2013-10-21 16:11:00,
2013-10-21 11:12:00,-999.0,-99.9,-100.00,NNW,327,6.7,8.9,-999,-99.99,,,-99.99,HOBO +U30 +Weather +,2013-10-21 16:12:00,
2013-10-21 11:13:00,-999.0,-99.9,-100.00,NW,314,8.9,12.3,-999,-99.99,,,-99.99,HOBO +U30 +Weather +,2013-10-21 16:13:00,
2013-10-21 11:14:00,-999.0,-99.9,-100.00,NNW,334,6.3,13.0,-999,-99.99,,,-99.99,HOBO +U30 +Weather +,2013-10-21 16:14:00,
2013-10-21 11:15:00,-999.0,-99.9,-100.00,NW,320,7.8,12.3,-999,-99.99,,,-99.99,HOBO +U30 +Weather +,2013-10-21 16:15:00,
2013-10-21 11:16:00,-999.0,-99.9,-100.00,NW,310,9.6,12.3,-999,-99.99,,,-99.99,HOBO +U30 +Weather +,2013-10-21 16:16:00,
2013-10-21 11:17:00,-999.0,-99.9,-100.00,NW,313,9.6,11.9,-999,-99.99,,,-99.99,HOBO +U30 +Weather +,2013-10-21 16:17:00,
2013-10-21 11:18:00,-999.0,-99.9,-100.00,NW,310,9.6,12.3,-999,-99.99,,,-99.99,HOBO +U30 +Weather +,2013-10-21 16:18:00,
2013-10-21 11:19:00,-999.0,-99.9,-100.00,WNW,303,8.9,12.3,-999,-99.99,,,-99.99,HOBO +U30 +Weather +,2013-10-21 16:19:00,
2013-10-21 11:20:00,-999.0,-99.9,-100.00,WNW,300,9.6,11.9,-999,-99.99,,,-99.99,HOBO +U30 +Weather +,2013-10-21 16:20:00,
2013-10-21 11:21:00,-999.0,-99.9,-100.00,NW,305,7.8,10.7,-999,-99.99,,,-99.99,HOBO +U30 +Weather +,2013-10-21 16:21:00,
2013-10-21 11:22:00,-999.0,-99.9,-100.00,WNW,302,9.6,11.9,-999,-99.99,,,-99.99,HOBO +U30 +Weather +,2013-10-21 16:22:00,
2013-10-21 11:23:00,-999.0,-99.9,-100.00,NW,309,9.6,11.9,-999,-99.99,,,-99.99,HOBO +U30 +Weather +,2013-10-21 16:23:00,
2013-10-21 11:24:00,-999.0,-99.9,-100.00,NW,313,8.5,11.9,-999,-99.99,,,-99.99,HOBO +U30 +Weather +,2013-10-21 16:24:00,
2013-10-21 11:25:00,-999.0,-99.9,-100.00,WNW,293,10.1,14.1,-999,-99.99,,,-99.99,HOBO +U30 +Weather +,2013-10-21 16:25:00,
2013-10-21 11:26:00,-999.0,-99.9,-100.00,WNW,293,11.2,13.4,-999,-99.99,,,-99.99,HOBO +U30 +Weather +,2013-10-21 16:26:00,
2013-10-21 11:27:00,-999.0,-99.9,-100.00,WNW,288,8.9,12.3,-999,-99.99,,,-99.99,HOBO +U30 +Weather +,2013-10-21 16:27:00,
2013-10-21 11:28:00,-999.0,-99.9,-100.00,WNW,289,7.8,10.7,-999,-99.99,,,-99.99,HOBO +U30 +Weather +,2013-10-21 16:28:00,
2013-10-21 11:29:00,-999.0,-99.9,-100.00,WNW,302,8.5,11.2,-999,-99.99,,,-99.99,HOBO +U30 +Weather +,2013-10-21 16:29:00,
2013-10-21 11:30:00,-999.0,-99.9,-100.00,WNW,299,7.8,11.2,-999,-99.99,,,-99.99,HOBO +U30 +Weather +,2013-10-21 16:30:00,
2013-10-21 11:31:00,-999.0,-99.9,-100.00,WNW,296,7.4,9.6,-999,-99.99,,,-99.99,HOBO +U30 +Weather +,2013-10-21 16:31:00,
2013-10-21 11:32:00,-999.0,-99.9,-100.00,WNW,303,7.4,8.9,-999,-99.99,,,-99.99,HOBO +U30 +Weather +,2013-10-21 16:32:00,
2013-10-21 11:33:00,-999.0,-99.9,-100.00,WNW,300,6.3,7.8,-999,-99.99,,,-99.99,HOBO +U30 +Weather +,2013-10-21 16:33:00,
2013-10-21 11:34:00,-999.0,-99.9,-100.00,WNW,298,6.7,10.1,-999,-99.99,,,-99.99,HOBO +U30 +Weather +,2013-10-21 16:34:00,
2013-10-21 11:35:00,-999.0,-99.9,-100.00,WNW,303,7.4,10.7,-999,-99.99,,,-99.99,HOBO +U30 +Weather +,2013-10-21 16:35:00,
2013-10-21 11:36:00,-999.0,-99.9,-100.00,WNW,298,7.8,13.0,-999,-99.99,,,-99.99,HOBO +U30 +Weather +,2013-10-21 16:36:00,
2013-10-21 11:37:00,-999.0,-99.9,-100.00,WNW,296,8.9,11.9,-999,-99.99,,,-99.99,HOBO +U30 +Weather +,2013-10-21 16:37:00,
2013-10-21 11:38:00,-999.0,-99.9,-100.00,WNW,303,7.4,8.9,-999,-99.99,,,-99.99,HOBO +U30 +Weather +,2013-10-21 16:38:00,
2013-10-21 11:39:00,-999.0,-99.9,-100.00,WNW,293,7.4,9.6,-999,-99.99,,,-99.99,HOBO +U30 +Weather +,2013-10-21 16:39:00,
2013-10-21 11:40:00,-999.0,-99.9,-100.00,WNW,292,7.8,9.6,-999,-99.99,,,-99.99,HOBO +U30 +Weather +,2013-10-21 16:40:00,
2013-10-21 11:41:00,-999.0,-99.9,-100.00,WNW,288,10.7,13.0,-999,-99.99,,,-99.99,HOBO +U30 +Weather +,2013-10-21 16:41:00,
2013-10-21 11:42:00,-999.0,-99.9,-100.00,WNW,284,7.8,10.7,-999,-99.99,,,-99.99,HOBO +U30 +Weather +,2013-10-21 16:42:00,
2013-10-21 11:43:00,-999.0,-99.9,-100.00,WNW,288,9.6,13.0,-999,-99.99,,,-99.99,HOBO +U30 +Weather +,2013-10-21 16:43:00,
2013-10-21 11:44:00,-999.0,-99.9,-100.00,WNW,288,7.8,11.2,-999,-99.99,,,-99.99,HOBO +U30 +Weather +,2013-10-21 16:44:00,
2013-10-21 11:45:00,-999.0,-99.9,-100.00,WNW,284,5.6,7.4,-999,-99.99,,,-99.99,HOBO +U30 +Weather +,2013-10-21 16:45:00,
2013-10-21 11:48:00,-999.0,-99.9,-100.00,WNW,291,8.9,12.3,-999,-99.99,,,-99.99,HOBO +U30 +Weather +,2013-10-21 16:48:00,
2013-10-21 11:49:00,-999.0,-99.9,-100.00,WNW,293,8.5,11.9,-999,-99.99,,,-99.99,HOBO +U30 +Weather +,2013-10-21 16:49:00,
2013-10-21 11:50:00,-999.0,-99.9,-100.00,WNW,292,9.6,12.3,-999,-99.99,,,-99.99,HOBO +U30 +Weather +,2013-10-21 16:50:00,
2013-10-21 11:51:00,-999.0,-99.9,-100.00,WNW,284,8.9,11.9,-999,-99.99,,,-99.99,HOBO +U30 +Weather +,2013-10-21 16:51:00,
2013-10-21 11:52:00,-999.0,-99.9,-100.00,WNW,282,8.5,10.1,-999,-99.99,,,-99.99,HOBO +U30 +Weather +,2013-10-21 16:52:00,
2013-10-21 11:53:00,-999.0,-99.9,-100.00,WNW,296,8.5,12.3,-999,-99.99,,,-99.99,HOBO +U30 +Weather +,2013-10-21 16:53:00,
2013-10-21 11:54:00,-999.0,-99.9,-100.00,WNW,286,7.8,10.7,-999,-99.99,,,-99.99,HOBO +U30 +Weather +,2013-10-21 16:54:00,
2013-10-21 11:55:00,-999.0,-99.9,-100.00,WNW,298,8.5,11.9,-999,-99.99,,,-99.99,HOBO +U30 +Weather +,2013-10-21 16:55:00,
2013-10-21 11:56:00,-999.0,-99.9,-100.00,WNW,289,8.9,11.9,-999,-99.99,,,-99.99,HOBO +U30 +Weather +,2013-10-21 16:56:00,
2013-10-21 11:57:00,-999.0,-99.9,-100.00,WNW,292,10.1,13.0,-999,-99.99,,,-99.99,HOBO +U30 +Weather +,2013-10-21 16:57:00,
2013-10-21 11:58:00,-999.0,-99.9,-100.00,WNW,296,10.7,14.5,-999,-99.99,,,-99.99,HOBO +U30 +Weather +,2013-10-21 16:58:00,
2013-10-21 11:59:00,-999.0,-99.9,-100.00,WNW,292,8.9,10.7,-999,-99.99,,,-99.99,HOBO +U30 +Weather +,2013-10-21 16:59:00,
2013-10-21 12:00:00,-999.0,-99.9,-100.00,West,281,7.8,10.7,-999,-99.99,,,-99.99,HOBO +U30 +Weather +,2013-10-21 17:00:00,
2013-10-21 12:01:00,-999.0,-99.9,-100.00,West,274,6.3,8.9,-999,-99.99,,,-99.99,HOBO +U30 +Weather +,2013-10-21 17:01:00,
2013-10-21 12:02:00,-999.0,-99.9,-100.00,WNW,291,6.3,8.9,-999,-99.99,,,-99.99,HOBO +U30 +Weather +,2013-10-21 17:02:00,
2013-10-21 12:03:00,-999.0,-99.9,-100.00,West,279,6.7,9.6,-999,-99.99,,,-99.99,HOBO +U30 +Weather +,2013-10-21 17:03:00,
2013-10-21 12:04:00,-999.0,-99.9,-100.00,WNW,292,6.7,10.1,-999,-99.99,,,-99.99,HOBO +U30 +Weather +,2013-10-21 17:04:00,
2013-10-21 12:05:00,-999.0,-99.9,-100.00,WNW,285,8.5,13.0,-999,-99.99,,,-99.99,HOBO +U30 +Weather +,2013-10-21 17:05:00,
2013-10-21 12:06:00,-999.0,-99.9,-100.00,West,281,11.2,14.5,-999,-99.99,,,-99.99,HOBO +U30 +Weather +,2013-10-21 17:06:00,
2013-10-21 12:07:00,-999.0,-99.9,-100.00,WNW,285,10.7,14.1,-999,-99.99,,,-99.99,HOBO +U30 +Weather +,2013-10-21 17:07:00,
2013-10-21 12:08:00,-999.0,-99.9,-100.00,WNW,286,9.6,13.4,-999,-99.99,,,-99.99,HOBO +U30 +Weather +,2013-10-21 17:08:00,
2013-10-21 12:09:00,-999.0,-99.9,-100.00,WNW,286,10.7,13.0,-999,-99.99,,,-99.99,HOBO +U30 +Weather +,2013-10-21 17:09:00,
2013-10-21 12:10:00,-999.0,-99.9,-100.00,WNW,291,7.8,9.6,-999,-99.99,,,-99.99,HOBO +U30 +Weather +,2013-10-21 17:10:00,
2013-10-21 12:11:00,-999.0,-99.9,-100.00,WNW,285,6.3,7.8,-999,-99.99,,,-99.99,HOBO +U30 +Weather +,2013-10-21 17:11:00,
2013-10-21 12:12:00,-999.0,-99.9,-100.00,WNW,284,8.9,12.3,-999,-99.99,,,-99.99,HOBO +U30 +Weather +,2013-10-21 17:12:00,
2013-10-21 12:13:00,-999.0,-99.9,-100.00,WNW,296,10.1,14.1,-999,-99.99,,,-99.99,HOBO +U30 +Weather +,2013-10-21 17:13:00,
2013-10-21 12:14:00,-999.0,-99.9,-100.00,WNW,295,8.5,11.2,-999,-99.99,,,-99.99,HOBO +U30 +Weather +,2013-10-21 17:14:00,
2013-10-21 12:15:00,-999.0,-99.9,-100.00,WNW,292,7.8,11.9,-999,-99.99,,,-99.99,HOBO +U30 +Weather +,2013-10-21 17:15:00,
2013-10-21 12:16:00,-999.0,-99.9,-100.00,West,277,6.7,10.7,-999,-99.99,,,-99.99,HOBO +U30 +Weather +,2013-10-21 17:16:00,
2013-10-21 12:17:00,-999.0,-99.9,-100.00,West,281,7.8,10.7,-999,-99.99,,,-99.99,HOBO +U30 +Weather +,2013-10-21 17:17:00,
2013-10-21 12:18:00,-999.0,-99.9,-100.00,West,277,7.8,10.7,-999,-99.99,,,-99.99,HOBO +U30 +Weather +,2013-10-21 17:18:00,
2013-10-21 12:19:00,-999.0,-99.9,-100.00,West,277,6.7,11.2,-999,-99.99,,,-99.99,HOBO +U30 +Weather +,2013-10-21 17:19:00,
2013-10-21 12:20:00,-999.0,-99.9,-100.00,West,279,8.9,13.0,-999,-99.99,,,-99.99,HOBO +U30 +Weather +,2013-10-21 17:20:00,
2013-10-21 12:21:00,-999.0,-99.9,-100.00,West,277,8.5,12.3,-999,-99.99,,,-99.99,HOBO +U30 +Weather +,2013-10-21 17:21:00,
2013-10-21 12:22:00,-999.0,-99.9,-100.00,West,277,8.5,11.2,-999,-99.99,,,-99.99,HOBO +U30 +Weather +,2013-10-21 17:22:00,
2013-10-21 12:23:00,-999.0,-99.9,-100.00,West,278,7.8,10.1,-999,-99.99,,,-99.99,HOBO +U30 +Weather +,2013-10-21 17:23:00,
2013-10-21 12:24:00,-999.0,-99.9,-100.00,West,281,8.9,13.4,-999,-99.99,,,-99.99,HOBO +U30 +Weather +,2013-10-21 17:24:00,
2013-10-21 12:25:00,-999.0,-99.9,-100.00,WNW,284,7.8,10.1,-999,-99.99,,,-99.99,HOBO +U30 +Weather +,2013-10-21 17:25:00,
2013-10-21 12:26:00,-999.0,-99.9,-100.00,West,277,8.9,13.4,-999,-99.99,,,-99.99,HOBO +U30 +Weather +,2013-10-21 17:26:00,
2013-10-21 12:27:00,-999.0,-99.9,-100.00,WNW,292,10.1,12.3,-999,-99.99,,,-99.99,HOBO +U30 +Weather +,2013-10-21 17:27:00,
2013-10-21 12:28:00,-999.0,-99.9,-100.00,WNW,293,9.6,11.9,-999,-99.99,,,-99.99,HOBO +U30 +Weather +,2013-10-21 17:28:00,
2013-10-21 12:29:00,-999.0,-99.9,-100.00,WNW,299,11.9,15.2,-999,-99.99,,,-99.99,HOBO +U30 +Weather +,2013-10-21 17:29:00,
2013-10-21 12:30:00,-999.0,-99.9,-100.00,WNW,289,10.7,15.2,-999,-99.99,,,-99.99,HOBO +U30 +Weather +,2013-10-21 17:30:00,
2013-10-21 12:31:00,-999.0,-99.9,-100.00,WNW,288,8.9,12.3,-999,-99.99,,,-99.99,HOBO +U30 +Weather +,2013-10-21 17:31:00,
2013-10-21 12:32:00,-999.0,-99.9,-100.00,WNW,298,9.6,13.0,-999,-99.99,,,-99.99,HOBO +U30 +Weather +,2013-10-21 17:32:00,
2013-10-21 12:33:00,-999.0,-99.9,-100.00,WNW,295,8.9,13.4,-999,-99.99,,,-99.99,HOBO +U30 +Weather +,2013-10-21 17:33:00,
2013-10-21 12:34:00,-999.0,-99.9,-100.00,WNW,284,10.1,15.2,-999,-99.99,,,-99.99,HOBO +U30 +Weather +,2013-10-21 17:34:00,
2013-10-21 12:35:00,-999.0,-99.9,-100.00,WNW,293,8.9,14.1,-999,-99.99,,,-99.99,HOBO +U30 +Weather +,2013-10-21 17:35:00,
2013-10-21 12:36:00,-999.0,-99.9,-100.00,NW,306,9.6,14.5,-999,-99.99,,,-99.99,HOBO +U30 +Weather +,2013-10-21 17:36:00,
2013-10-21 12:37:00,-999.0,-99.9,-100.00,NW,307,12.3,15.9,-999,-99.99,,,-99.99,HOBO +U30 +Weather +,2013-10-21 17:37:00,
2013-10-21 12:38:00,-999.0,-99.9,-100.00,WNW,299,12.3,15.2,-999,-99.99,,,-99.99,HOBO +U30 +Weather +,2013-10-21 17:38:00,
2013-10-21 12:39:00,-999.0,-99.9,-100.00,WNW,296,10.7,14.5,-999,-99.99,,,-99.99,HOBO +U30 +Weather +,2013-10-21 17:39:00,
2013-10-21 12:40:00,-999.0,-99.9,-100.00,WNW,296,8.5,11.9,-999,-99.99,,,-99.99,HOBO +U30 +Weather +,2013-10-21 17:40:00,
2013-10-21 12:41:00,-999.0,-99.9,-100.00,WNW,292,8.5,11.2,-999,-99.99,,,-99.99,HOBO +U30 +Weather +,2013-10-21 17:41:00,
2013-10-21 12:42:00,-999.0,-99.9,-100.00,WNW,289,10.1,12.3,-999,-99.99,,,-99.99,HOBO +U30 +Weather +,2013-10-21 17:42:00,
2013-10-21 12:43:00,-999.0,-99.9,-100.00,West,278,9.6,12.3,-999,-99.99,,,-99.99,HOBO +U30 +Weather +,2013-10-21 17:43:00,
2013-10-21 12:44:00,-999.0,-99.9,-100.00,West,278,8.5,11.9,-999,-99.99,,,-99.99,HOBO +U30 +Weather +,2013-10-21 17:44:00,
2013-10-21 12:45:00,-999.0,-99.9,-100.00,West,274,8.5,11.2,-999,-99.99,,,-99.99,HOBO +U30 +Weather +,2013-10-21 17:45:00,
2013-10-21 12:46:00,-999.0,-99.9,-100.00,WNW,286,7.4,10.1,-999,-99.99,,,-99.99,HOBO +U30 +Weather +,2013-10-21 17:46:00,
2013-10-21 12:47:00,-999.0,-99.9,-100.00,WNW,285,6.3,8.9,-999,-99.99,,,-99.99,HOBO +U30 +Weather +,2013-10-21 17:47:00,
2013-10-21 12:48:00,-999.0,-99.9,-100.00,West,272,7.4,8.9,-999,-99.99,,,-99.99,HOBO +U30 +Weather +,2013-10-21 17:48:00,
2013-10-21 12:49:00,-999.0,-99.9,-100.00,West,274,7.8,11.2,-999,-99.99,,,-99.99,HOBO +U30 +Weather +,2013-10-21 17:49:00,
2013-10-21 12:50:00,-999.0,-99.9,-100.00,WNW,289,7.4,10.1,-999,-99.99,,,-99.99,HOBO +U30 +Weather +,2013-10-21 17:50:00,
2013-10-21 12:51:00,-999.0,-99.9,-100.00,WNW,298,11.9,16.3,-999,-99.99,,,-99.99,HOBO +U30 +Weather +,2013-10-21 17:51:00,
2013-10-21 12:52:00,-999.0,-99.9,-100.00,WNW,299,10.1,13.0,-999,-99.99,,,-99.99,HOBO +U30 +Weather +,2013-10-21 17:52:00,
2013-10-21 12:53:00,-999.0,-99.9,-100.00,WNW,298,10.7,13.4,-999,-99.99,,,-99.99,HOBO +U30 +Weather +,2013-10-21 17:53:00,
2013-10-21 12:54:00,-999.0,-99.9,-100.00,WNW,300,12.3,17.0,-999,-99.99,,,-99.99,HOBO +U30 +Weather +,2013-10-21 17:54:00,
2013-10-21 12:55:00,-999.0,-99.9,-100.00,NW,310,11.2,14.5,-999,-99.99,,,-99.99,HOBO +U30 +Weather +,2013-10-21 17:55:00,
2013-10-21 12:56:00,-999.0,-99.9,-100.00,WNW,302,12.3,17.0,-999,-99.99,,,-99.99,HOBO +U30 +Weather +,2013-10-21 17:56:00,
2013-10-21 12:57:00,-999.0,-99.9,-100.00,WNW,288,13.0,15.9,-999,-99.99,,,-99.99,HOBO +U30 +Weather +,2013-10-21 17:57:00,
2013-10-21 12:58:00,-999.0,-99.9,-100.00,WNW,293,13.4,16.3,-999,-99.99,,,-99.99,HOBO +U30 +Weather +,2013-10-21 17:58:00,
2013-10-21 12:59:00,-999.0,-99.9,-100.00,WNW,292,10.7,14.1,-999,-99.99,,,-99.99,HOBO +U30 +Weather +,2013-10-21 17:59:00,
2013-10-21 13:01:00,-999.0,-99.9,-100.00,WNW,302,12.3,15.9,-999,-99.99,,,-99.99,HOBO +U30 +Weather +,2013-10-21 18:01:00,
2013-10-21 13:02:00,-999.0,-99.9,-100.00,WNW,292,11.9,15.9,-999,-99.99,,,-99.99,HOBO +U30 +Weather +,2013-10-21 18:02:00,
2013-10-21 13:03:00,-999.0,-99.9,-100.00,WNW,292,11.2,16.3,-999,-99.99,,,-99.99,HOBO +U30 +Weather +,2013-10-21 18:03:00,
2013-10-21 13:04:00,-999.0,-99.9,-100.00,WNW,292,10.1,12.3,-999,-99.99,,,-99.99,HOBO +U30 +Weather +,2013-10-21 18:04:00,
2013-10-21 13:05:00,-999.0,-99.9,-100.00,WNW,292,12.3,15.2,-999,-99.99,,,-99.99,HOBO +U30 +Weather +,2013-10-21 18:05:00,
2013-10-21 13:06:00,-999.0,-99.9,-100.00,WNW,295,10.7,14.1,-999,-99.99,,,-99.99,HOBO +U30 +Weather +,2013-10-21 18:06:00,
2013-10-21 13:07:00,-999.0,-99.9,-100.00,WNW,292,9.6,14.5,-999,-99.99,,,-99.99,HOBO +U30 +Weather +,2013-10-21 18:07:00,
2013-10-21 13:08:00,-999.0,-99.9,-100.00,WNW,286,11.2,15.2,-999,-99.99,,,-99.99,HOBO +U30 +Weather +,2013-10-21 18:08:00,
2013-10-21 13:09:00,-999.0,-99.9,-100.00,WNW,293,13.4,16.3,-999,-99.99,,,-99.99,HOBO +U30 +Weather +,2013-10-21 18:09:00,
2013-10-21 13:10:00,-999.0,-99.9,-100.00,WNW,300,13.4,16.3,-999,-99.99,,,-99.99,HOBO +U30 +Weather +,2013-10-21 18:10:00,
2013-10-21 13:11:00,-999.0,-99.9,-100.00,WNW,296,11.2,14.5,-999,-99.99,,,-99.99,HOBO +U30 +Weather +,2013-10-21 18:11:00,
2013-10-21 13:12:00,-999.0,-99.9,-100.00,WNW,300,12.3,16.3,-999,-99.99,,,-99.99,HOBO +U30 +Weather +,2013-10-21 18:12:00,
2013-10-21 13:13:00,-999.0,-99.9,-100.00,WNW,298,11.9,14.5,-999,-99.99,,,-99.99,HOBO +U30 +Weather +,2013-10-21 18:13:00,
2013-10-21 13:14:00,-999.0,-99.9,-100.00,WNW,295,14.5,18.6,-999,-99.99,,,-99.99,HOBO +U30 +Weather +,2013-10-21 18:14:00,
2013-10-21 13:15:00,-999.0,-99.9,-100.00,WNW,298,13.0,17.0,-999,-99.99,,,-99.99,HOBO +U30 +Weather +,2013-10-21 18:15:00,
2013-10-21 13:16:00,-999.0,-99.9,-100.00,WNW,300,11.9,15.2,-999,-99.99,,,-99.99,HOBO +U30 +Weather +,2013-10-21 18:16:00,
2013-10-21 13:17:00,-999.0,-99.9,-100.00,WNW,302,11.9,14.5,-999,-99.99,,,-99.99,HOBO +U30 +Weather +,2013-10-21 18:17:00,
2013-10-21 13:18:00,-999.0,-99.9,-100.00,WNW,303,10.7,17.0,-999,-99.99,,,-99.99,HOBO +U30 +Weather +,2013-10-21 18:18:00,
2013-10-21 13:19:00,-999.0,-99.9,-100.00,WNW,292,8.9,14.1,-999,-99.99,,,-99.99,HOBO +U30 +Weather +,2013-10-21 18:19:00,
2013-10-21 13:20:00,-999.0,-99.9,-100.00,WNW,300,8.5,10.1,-999,-99.99,,,-99.99,HOBO +U30 +Weather +,2013-10-21 18:20:00,
2013-10-21 13:21:00,-999.0,-99.9,-100.00,WNW,292,13.0,17.4,-999,-99.99,,,-99.99,HOBO +U30 +Weather +,2013-10-21 18:21:00,
2013-10-21 13:22:00,-999.0,-99.9,-100.00,WNW,282,8.9,13.4,-999,-99.99,,,-99.99,HOBO +U30 +Weather +,2013-10-21 18:22:00,
2013-10-21 13:23:00,-999.0,-99.9,-100.00,West,281,9.6,13.0,-999,-99.99,,,-99.99,HOBO +U30 +Weather +,2013-10-21 18:23:00,
2013-10-21 13:24:00,-999.0,-99.9,-100.00,WNW,288,8.9,12.3,-999,-99.99,,,-99.99,HOBO +U30 +Weather +,2013-10-21 18:24:00,
2013-10-21 13:25:00,-999.0,-99.9,-100.00,WNW,286,6.7,10.1,-999,-99.99,,,-99.99,HOBO +U30 +Weather +,2013-10-21 18:25:00,
2013-10-21 13:26:00,-999.0,-99.9,-100.00,WNW,291,6.7,10.7,-999,-99.99,,,-99.99,HOBO +U30 +Weather +,2013-10-21 18:26:00,
2013-10-21 13:27:00,-999.0,-99.9,-100.00,WNW,289,9.6,13.4,-999,-99.99,,,-99.99,HOBO +U30 +Weather +,2013-10-21 18:27:00,
2013-10-21 13:28:00,-999.0,-99.9,-100.00,WNW,291,11.9,19.2,-999,-99.99,,,-99.99,HOBO +U30 +Weather +,2013-10-21 18:28:00,
2013-10-21 13:29:00,-999.0,-99.9,-100.00,WNW,285,10.1,13.0,-999,-99.99,,,-99.99,HOBO +U30 +Weather +,2013-10-21 18:29:00,
2013-10-21 13:30:00,-999.0,-99.9,-100.00,WNW,288,10.1,13.4,-999,-99.99,,,-99.99,HOBO +U30 +Weather +,2013-10-21 18:30:00,
2013-10-21 13:31:00,-999.0,-99.9,-100.00,WNW,295,11.9,14.1,-999,-99.99,,,-99.99,HOBO +U30 +Weather +,2013-10-21 18:31:00,
2013-10-21 13:32:00,-999.0,-99.9,-100.00,WNW,296,8.5,11.9,-999,-99.99,,,-99.99,HOBO +U30 +Weather +,2013-10-21 18:32:00,
2013-10-21 13:33:00,-999.0,-99.9,-100.00,WNW,291,12.3,16.3,-999,-99.99,,,-99.99,HOBO +U30 +Weather +,2013-10-21 18:33:00,
2013-10-21 13:34:00,-999.0,-99.9,-100.00,WNW,295,13.4,16.3,-999,-99.99,,,-99.99,HOBO +U30 +Weather +,2013-10-21 18:34:00,
2013-10-21 13:35:00,-999.0,-99.9,-100.00,WNW,296,11.2,16.3,-999,-99.99,,,-99.99,HOBO +U30 +Weather +,2013-10-21 18:35:00,
2013-10-21 13:36:00,-999.0,-99.9,-100.00,WNW,293,11.2,15.2,-999,-99.99,,,-99.99,HOBO +U30 +Weather +,2013-10-21 18:36:00,
2013-10-21 13:37:00,-999.0,-99.9,-100.00,WNW,291,11.2,14.1,-999,-99.99,,,-99.99,HOBO +U30 +Weather +,2013-10-21 18:37:00,
2013-10-21 13:38:00,-999.0,-99.9,-100.00,WNW,291,11.2,14.1,-999,-99.99,,,-99.99,HOBO +U30 +Weather +,2013-10-21 18:38:00,
2013-10-21 13:39:00,-999.0,-99.9,-100.00,WNW,295,12.3,15.9,-999,-99.99,,,-99.99,HOBO +U30 +Weather +,2013-10-21 18:39:00,
2013-10-21 13:40:00,-999.0,-99.9,-100.00,WNW,286,10.7,14.1,-999,-99.99,,,-99.99,HOBO +U30 +Weather +,2013-10-21 18:40:00,
2013-10-21 13:41:00,-999.0,-99.9,-100.00,WNW,282,8.9,11.2,-999,-99.99,,,-99.99,HOBO +U30 +Weather +,2013-10-21 18:41:00,
2013-10-21 13:42:00,-999.0,-99.9,-100.00,WNW,293,10.7,14.1,-999,-99.99,,,-99.99,HOBO +U30 +Weather +,2013-10-21 18:42:00,
2013-10-21 13:43:00,-999.0,-99.9,-100.00,West,278,7.8,11.9,-999,-99.99,,,-99.99,HOBO +U30 +Weather +,2013-10-21 18:43:00,
2013-10-21 13:44:00,-999.0,-99.9,-100.00,WNW,291,12.3,15.2,-999,-99.99,,,-99.99,HOBO +U30 +Weather +,2013-10-21 18:44:00,
2013-10-21 13:45:00,-999.0,-99.9,-100.00,WNW,282,12.3,15.9,-999,-99.99,,,-99.99,HOBO +U30 +Weather +,2013-10-21 18:45:00,
2013-10-21 13:46:00,-999.0,-99.9,-100.00,WNW,289,12.3,16.3,-999,-99.99,,,-99.99,HOBO +U30 +Weather +,2013-10-21 18:46:00,
2013-10-21 13:47:00,-999.0,-99.9,-100.00,WNW,286,13.0,20.8,-999,-99.99,,,-99.99,HOBO +U30 +Weather +,2013-10-21 18:47:00,
2013-10-21 13:48:00,-999.0,-99.9,-100.00,West,278,10.7,14.1,-999,-99.99,,,-99.99,HOBO +U30 +Weather +,2013-10-21 18:48:00,
2013-10-21 13:49:00,-999.0,-99.9,-100.00,WNW,298,14.1,17.4,-999,-99.99,,,-99.99,HOBO +U30 +Weather +,2013-10-21 18:49:00,
2013-10-21 13:50:00,-999.0,-99.9,-100.00,WNW,286,12.3,17.4,-999,-99.99,,,-99.99,HOBO +U30 +Weather +,2013-10-21 18:50:00,
2013-10-21 13:51:00,-999.0,-99.9,-100.00,WNW,282,13.0,17.0,-999,-99.99,,,-99.99,HOBO +U30 +Weather +,2013-10-21 18:51:00,
2013-10-21 13:52:00,-999.0,-99.9,-100.00,West,279,11.2,17.0,-999,-99.99,,,-99.99,HOBO +U30 +Weather +,2013-10-21 18:52:00,
2013-10-21 13:53:00,-999.0,-99.9,-100.00,WNW,286,7.4,10.1,-999,-99.99,,,-99.99,HOBO +U30 +Weather +,2013-10-21 18:53:00,
2013-10-21 13:54:00,-999.0,-99.9,-100.00,WNW,293,11.9,18.1,-999,-99.99,,,-99.99,HOBO +U30 +Weather +,2013-10-21 18:54:00,
2013-10-21 13:55:00,-999.0,-99.9,-100.00,WNW,291,14.5,18.1,-999,-99.99,,,-99.99,HOBO +U30 +Weather +,2013-10-21 18:55:00,
2013-10-21 13:56:00,-999.0,-99.9,-100.00,WNW,302,14.1,20.4,-999,-99.99,,,-99.99,HOBO +U30 +Weather +,2013-10-21 18:56:00,
2013-10-21 13:57:00,-999.0,-99.9,-100.00,NW,306,15.9,19.2,-999,-99.99,,,-99.99,HOBO +U30 +Weather +,2013-10-21 18:57:00,
2013-10-21 13:58:00,-999.0,-99.9,-100.00,West,281,8.9,15.2,-999,-99.99,,,-99.99,HOBO +U30 +Weather +,2013-10-21 18:58:00,
2013-10-21 13:59:00,-999.0,-99.9,-100.00,WNW,295,10.7,13.0,-999,-99.99,,,-99.99,HOBO +U30 +Weather +,2013-10-21 18:59:00,
2013-10-21 14:00:00,-999.0,-99.9,-100.00,WNW,302,11.9,18.1,-999,-99.99,,,-99.99,HOBO +U30 +Weather +,2013-10-21 19:00:00,
2013-10-21 14:01:00,-999.0,-99.9,-100.00,WNW,299,16.3,20.8,-999,-99.99,,,-99.99,HOBO +U30 +Weather +,2013-10-21 19:01:00,
2013-10-21 14:02:00,-999.0,-99.9,-100.00,WNW,293,15.2,20.8,-999,-99.99,,,-99.99,HOBO +U30 +Weather +,2013-10-21 19:02:00,
2013-10-21 14:03:00,-999.0,-99.9,-100.00,West,279,14.5,19.2,-999,-99.99,,,-99.99,HOBO +U30 +Weather +,2013-10-21 19:03:00,
2013-10-21 14:04:00,-999.0,-99.9,-100.00,WNW,292,14.1,18.1,-999,-99.99,,,-99.99,HOBO +U30 +Weather +,2013-10-21 19:04:00,
2013-10-21 14:05:00,-999.0,-99.9,-100.00,WNW,300,12.3,15.9,-999,-99.99,,,-99.99,HOBO +U30 +Weather +,2013-10-21 19:05:00,
2013-10-21 14:06:00,-999.0,-99.9,-100.00,WNW,284,11.9,15.9,-999,-99.99,,,-99.99,HOBO +U30 +Weather +,2013-10-21 19:06:00,
2013-10-21 14:07:00,-999.0,-99.9,-100.00,WNW,288,13.4,17.0,-999,-99.99,,,-99.99,HOBO +U30 +Weather +,2013-10-21 19:07:00,
2013-10-21 14:08:00,-999.0,-99.9,-100.00,WNW,288,16.3,20.4,-999,-99.99,,,-99.99,HOBO +U30 +Weather +,2013-10-21 19:08:00,
2013-10-21 14:10:00,-999.0,-99.9,-100.00,WNW,285,13.4,18.6,-999,-99.99,,,-99.99,HOBO +U30 +Weather +,2013-10-21 19:10:00,
2013-10-21 14:12:00,-999.0,-99.9,-100.00,West,274,8.5,11.9,-999,-99.99,,,-99.99,HOBO +U30 +Weather +,2013-10-21 19:12:00,
2013-10-21 14:13:00,-999.0,-99.9,-100.00,West,275,13.4,18.6,-999,-99.99,,,-99.99,HOBO +U30 +Weather +,2013-10-21 19:13:00,
2013-10-21 14:14:00,-999.0,-99.9,-100.00,WNW,284,10.7,15.2,-999,-99.99,,,-99.99,HOBO +U30 +Weather +,2013-10-21 19:14:00,
2013-10-21 14:15:00,-999.0,-99.9,-100.00,WNW,288,13.0,16.3,-999,-99.99,,,-99.99,HOBO +U30 +Weather +,2013-10-21 19:15:00,
2013-10-21 14:18:00,-999.0,-99.9,-100.00,WNW,289,10.1,13.0,-999,-99.99,,,-99.99,HOBO +U30 +Weather +,2013-10-21 19:18:00,
2013-10-21 14:19:00,-999.0,-99.9,-100.00,West,278,8.9,13.0,-999,-99.99,,,-99.99,HOBO +U30 +Weather +,2013-10-21 19:19:00,
2013-10-21 14:20:00,-999.0,-99.9,-100.00,West,279,11.9,16.3,-999,-99.99,,,-99.99,HOBO +U30 +Weather +,2013-10-21 19:20:00,
2013-10-21 14:21:00,-999.0,-99.9,-100.00,West,281,11.9,15.9,-999,-99.99,,,-99.99,HOBO +U30 +Weather +,2013-10-21 19:21:00,
2013-10-21 14:22:00,-999.0,-99.9,-100.00,West,279,10.1,15.2,-999,-99.99,,,-99.99,HOBO +U30 +Weather +,2013-10-21 19:22:00,
2013-10-21 14:23:00,-999.0,-99.9,-100.00,WNW,289,13.0,17.0,-999,-99.99,,,-99.99,HOBO +U30 +Weather +,2013-10-21 19:23:00,
2013-10-21 14:24:00,-999.0,-99.9,-100.00,WNW,285,11.2,17.4,-999,-99.99,,,-99.99,HOBO +U30 +Weather +,2013-10-21 19:24:00,
2013-10-21 14:25:00,-999.0,-99.9,-100.00,WNW,288,11.9,17.4,-999,-99.99,,,-99.99,HOBO +U30 +Weather +,2013-10-21 19:25:00,
2013-10-21 14:26:00,-999.0,-99.9,-100.00,WNW,291,11.9,15.2,-999,-99.99,,,-99.99,HOBO +U30 +Weather +,2013-10-21 19:26:00,
2013-10-21 14:27:00,-999.0,-99.9,-100.00,WNW,284,13.0,17.0,-999,-99.99,,,-99.99,HOBO +U30 +Weather +,2013-10-21 19:27:00,
2013-10-21 14:28:00,-999.0,-99.9,-100.00,WNW,288,13.0,18.6,-999,-99.99,,,-99.99,HOBO +U30 +Weather +,2013-10-21 19:28:00,
2013-10-21 14:29:00,-999.0,-99.9,-100.00,WNW,292,11.9,15.9,-999,-99.99,,,-99.99,HOBO +U30 +Weather +,2013-10-21 19:29:00,
2013-10-21 14:30:00,-999.0,-99.9,-100.00,West,281,9.6,11.9,-999,-99.99,,,-99.99,HOBO +U30 +Weather +,2013-10-21 19:30:00,
2013-10-21 14:31:00,-999.0,-99.9,-100.00,WNW,289,10.7,14.1,-999,-99.99,,,-99.99,HOBO +U30 +Weather +,2013-10-21 19:31:00,
2013-10-21 14:32:00,-999.0,-99.9,-100.00,West,281,8.9,13.4,-999,-99.99,,,-99.99,HOBO +U30 +Weather +,2013-10-21 19:32:00,
2013-10-21 14:33:00,-999.0,-99.9,-100.00,WNW,288,11.9,15.9,-999,-99.99,,,-99.99,HOBO +U30 +Weather +,2013-10-21 19:33:00,
2013-10-21 14:34:00,-999.0,-99.9,-100.00,WNW,291,10.7,14.1,-999,-99.99,,,-99.99,HOBO +U30 +Weather +,2013-10-21 19:34:00,
2013-10-21 14:35:00,-999.0,-99.9,-100.00,WNW,289,11.9,15.2,-999,-99.99,,,-99.99,HOBO +U30 +Weather +,2013-10-21 19:35:00,
2013-10-21 14:36:00,-999.0,-99.9,-100.00,West,279,11.2,17.0,-999,-99.99,,,-99.99,HOBO +U30 +Weather +,2013-10-21 19:36:00,
2013-10-21 14:37:00,-999.0,-99.9,-100.00,WNW,292,11.2,15.2,-999,-99.99,,,-99.99,HOBO +U30 +Weather +,2013-10-21 19:37:00,
2013-10-21 14:38:00,-999.0,-99.9,-100.00,WNW,295,10.1,13.4,-999,-99.99,,,-99.99,HOBO +U30 +Weather +,2013-10-21 19:38:00,
2013-10-21 14:39:00,-999.0,-99.9,-100.00,WNW,298,10.7,13.4,-999,-99.99,,,-99.99,HOBO +U30 +Weather +,2013-10-21 19:39:00,
2013-10-21 14:40:00,-999.0,-99.9,-100.00,NW,307,10.1,13.4,-999,-99.99,,,-99.99,HOBO +U30 +Weather +,2013-10-21 19:40:00,
2013-10-21 14:41:00,-999.0,-99.9,-100.00,WNW,296,9.6,13.0,-999,-99.99,,,-99.99,HOBO +U30 +Weather +,2013-10-21 19:41:00,
2013-10-21 14:42:00,-999.0,-99.9,-100.00,WNW,285,7.8,11.9,-999,-99.99,,,-99.99,HOBO +U30 +Weather +,2013-10-21 19:42:00,
2013-10-21 14:43:00,-999.0,-99.9,-100.00,West,277,9.6,14.1,-999,-99.99,,,-99.99,HOBO +U30 +Weather +,2013-10-21 19:43:00,
2013-10-21 14:44:00,-999.0,-99.9,-100.00,West,277,10.1,13.4,-999,-99.99,,,-99.99,HOBO +U30 +Weather +,2013-10-21 19:44:00,
2013-10-21 14:45:00,-999.0,-99.9,-100.00,WNW,298,11.2,14.5,-999,-99.99,,,-99.99,HOBO +U30 +Weather +,2013-10-21 19:45:00,
2013-10-21 14:46:00,-999.0,-99.9,-100.00,NW,309,14.1,18.1,-999,-99.99,,,-99.99,HOBO +U30 +Weather +,2013-10-21 19:46:00,
2013-10-21 14:47:00,-999.0,-99.9,-100.00,WNW,300,14.5,18.6,-999,-99.99,,,-99.99,HOBO +U30 +Weather +,2013-10-21 19:47:00,
2013-10-21 14:48:00,-999.0,-99.9,-100.00,WNW,293,11.9,17.0,-999,-99.99,,,-99.99,HOBO +U30 +Weather +,2013-10-21 19:48:00,
2013-10-21 14:49:00,-999.0,-99.9,-100.00,WNW,298,11.9,14.1,-999,-99.99,,,-99.99,HOBO +U30 +Weather +,2013-10-21 19:49:00,
2013-10-21 14:50:00,-999.0,-99.9,-100.00,WNW,303,10.7,13.0,-999,-99.99,,,-99.99,HOBO +U30 +Weather +,2013-10-21 19:50:00,
2013-10-21 14:51:00,-999.0,-99.9,-100.00,WNW,293,12.3,16.3,-999,-99.99,,,-99.99,HOBO +U30 +Weather +,2013-10-21 19:51:00,
2013-10-21 14:52:00,-999.0,-99.9,-100.00,WNW,291,11.9,15.9,-999,-99.99,,,-99.99,HOBO +U30 +Weather +,2013-10-21 19:52:00,
2013-10-21 14:53:00,-999.0,-99.9,-100.00,NW,305,11.2,13.4,-999,-99.99,,,-99.99,HOBO +U30 +Weather +,2013-10-21 19:53:00,
2013-10-21 14:54:00,-999.0,-99.9,-100.00,WNW,291,11.2,15.2,-999,-99.99,,,-99.99,HOBO +U30 +Weather +,2013-10-21 19:54:00,
2013-10-21 14:55:00,-999.0,-99.9,-100.00,WNW,288,11.2,14.5,-999,-99.99,,,-99.99,HOBO +U30 +Weather +,2013-10-21 19:55:00,
2013-10-21 14:56:00,-999.0,-99.9,-100.00,WNW,292,12.3,16.3,-999,-99.99,,,-99.99,HOBO +U30 +Weather +,2013-10-21 19:56:00,
2013-10-21 14:57:00,-999.0,-99.9,-100.00,WNW,286,10.1,14.1,-999,-99.99,,,-99.99,HOBO +U30 +Weather +,2013-10-21 19:57:00,
2013-10-21 14:58:00,-999.0,-99.9,-100.00,WNW,291,11.9,15.9,-999,-99.99,,,-99.99,HOBO +U30 +Weather +,2013-10-21 19:58:00,
2013-10-21 14:59:00,-999.0,-99.9,-100.00,WNW,293,14.5,18.6,-999,-99.99,,,-99.99,HOBO +U30 +Weather +,2013-10-21 19:59:00,
2013-10-21 15:00:00,-999.0,-99.9,-100.00,WNW,289,11.2,16.3,-999,-99.99,,,-99.99,HOBO +U30 +Weather +,2013-10-21 20:00:00,
2013-10-21 15:01:00,-999.0,-99.9,-100.00,WNW,299,8.9,12.3,-999,-99.99,,,-99.99,HOBO +U30 +Weather +,2013-10-21 20:01:00,
2013-10-21 15:02:00,-999.0,-99.9,-100.00,WNW,303,11.9,15.2,-999,-99.99,,,-99.99,HOBO +U30 +Weather +,2013-10-21 20:02:00,
2013-10-21 15:03:00,-999.0,-99.9,-100.00,NW,306,13.0,15.9,-999,-99.99,,,-99.99,HOBO +U30 +Weather +,2013-10-21 20:03:00,
2013-10-21 15:04:00,-999.0,-99.9,-100.00,NW,316,13.4,18.6,-999,-99.99,,,-99.99,HOBO +U30 +Weather +,2013-10-21 20:04:00,
2013-10-21 15:05:00,-999.0,-99.9,-100.00,NW,309,10.7,14.5,-999,-99.99,,,-99.99,HOBO +U30 +Weather +,2013-10-21 20:05:00,
2013-10-21 15:06:00,-999.0,-99.9,-100.00,WNW,296,9.6,12.3,-999,-99.99,,,-99.99,HOBO +U30 +Weather +,2013-10-21 20:06:00,
2013-10-21 15:07:00,-999.0,-99.9,-100.00,WNW,291,11.2,15.2,-999,-99.99,,,-99.99,HOBO +U30 +Weather +,2013-10-21 20:07:00,
2013-10-21 15:08:00,-999.0,-99.9,-100.00,WNW,295,11.2,17.4,-999,-99.99,,,-99.99,HOBO +U30 +Weather +,2013-10-21 20:08:00,
2013-10-21 15:09:00,-999.0,-99.9,-100.00,WNW,284,14.5,19.7,-999,-99.99,,,-99.99,HOBO +U30 +Weather +,2013-10-21 20:09:00,
2013-10-21 15:12:00,-999.0,-99.9,-100.00,WNW,291,10.1,14.5,-999,-99.99,,,-99.99,HOBO +U30 +Weather +,2013-10-21 20:12:00,
2013-10-21 15:14:00,-999.0,-99.9,-100.00,WNW,285,10.1,14.5,-999,-99.99,,,-99.99,HOBO +U30 +Weather +,2013-10-21 20:14:00,
2013-10-21 15:15:00,-999.0,-99.9,-100.00,WNW,286,10.1,12.3,-999,-99.99,,,-99.99,HOBO +U30 +Weather +,2013-10-21 20:15:00,
2013-10-21 15:16:00,-999.0,-99.9,-100.00,WNW,293,9.6,11.9,-999,-99.99,,,-99.99,HOBO +U30 +Weather +,2013-10-21 20:16:00,
2013-10-21 15:17:00,-999.0,-99.9,-100.00,WNW,299,8.5,12.3,-999,-99.99,,,-99.99,HOBO +U30 +Weather +,2013-10-21 20:17:00,
2013-10-21 15:18:00,-999.0,-99.9,-100.00,WNW,299,9.6,12.3,-999,-99.99,,,-99.99,HOBO +U30 +Weather +,2013-10-21 20:18:00,
2013-10-21 15:19:00,-999.0,-99.9,-100.00,WNW,302,14.1,19.2,-999,-99.99,,,-99.99,HOBO +U30 +Weather +,2013-10-21 20:19:00,
2013-10-21 15:20:00,-999.0,-99.9,-100.00,WNW,296,14.1,19.2,-999,-99.99,,,-99.99,HOBO +U30 +Weather +,2013-10-21 20:20:00,
2013-10-21 15:21:00,-999.0,-99.9,-100.00,WNW,300,15.2,22.6,-999,-99.99,,,-99.99,HOBO +U30 +Weather +,2013-10-21 20:21:00,
2013-10-21 15:23:00,-999.0,-99.9,-100.00,West,281,13.4,17.0,-999,-99.99,,,-99.99,HOBO +U30 +Weather +,2013-10-21 20:23:00,
2013-10-21 15:24:00,-999.0,-99.9,-100.00,West,275,13.4,21.9,-999,-99.99,,,-99.99,HOBO +U30 +Weather +,2013-10-21 20:24:00,
2013-10-21 15:25:00,-999.0,-99.9,-100.00,WNW,282,13.4,17.4,-999,-99.99,,,-99.99,HOBO +U30 +Weather +,2013-10-21 20:25:00,
2013-10-21 15:26:00,-999.0,-99.9,-100.00,WNW,286,11.9,14.5,-999,-99.99,,,-99.99,HOBO +U30 +Weather +,2013-10-21 20:26:00,
2013-10-21 15:27:00,-999.0,-99.9,-100.00,WNW,284,10.1,15.2,-999,-99.99,,,-99.99,HOBO +U30 +Weather +,2013-10-21 20:27:00,
2013-10-21 15:28:00,-999.0,-99.9,-100.00,WNW,288,14.5,19.2,-999,-99.99,,,-99.99,HOBO +U30 +Weather +,2013-10-21 20:28:00,
2013-10-21 15:29:00,-999.0,-99.9,-100.00,WNW,292,15.9,20.4,-999,-99.99,,,-99.99,HOBO +U30 +Weather +,2013-10-21 20:29:00,
2013-10-21 15:30:00,-999.0,-99.9,-100.00,WNW,295,17.4,21.5,-999,-99.99,,,-99.99,HOBO +U30 +Weather +,2013-10-21 20:30:00,
2013-10-21 15:31:00,-999.0,-99.9,-100.00,West,281,13.0,15.2,-999,-99.99,,,-99.99,HOBO +U30 +Weather +,2013-10-21 20:31:00,
2013-10-21 15:32:00,-999.0,-99.9,-100.00,NW,305,12.3,16.3,-999,-99.99,,,-99.99,HOBO +U30 +Weather +,2013-10-21 20:32:00,
2013-10-21 15:33:00,-999.0,-99.9,-100.00,WNW,299,13.0,18.6,-999,-99.99,,,-99.99,HOBO +U30 +Weather +,2013-10-21 20:33:00,
2013-10-21 15:34:00,-999.0,-99.9,-100.00,West,279,13.4,18.6,-999,-99.99,,,-99.99,HOBO +U30 +Weather +,2013-10-21 20:34:00,
2013-10-21 15:35:00,-999.0,-99.9,-100.00,WNW,292,12.3,16.3,-999,-99.99,,,-99.99,HOBO +U30 +Weather +,2013-10-21 20:35:00,
2013-10-21 15:36:00,-999.0,-99.9,-100.00,WNW,292,12.3,17.0,-999,-99.99,,,-99.99,HOBO +U30 +Weather +,2013-10-21 20:36:00,
2013-10-21 15:37:00,-999.0,-99.9,-100.00,WNW,295,15.2,18.6,-999,-99.99,,,-99.99,HOBO +U30 +Weather +,2013-10-21 20:37:00,
2013-10-21 15:38:00,-999.0,-99.9,-100.00,WNW,296,17.0,21.9,-999,-99.99,,,-99.99,HOBO +U30 +Weather +,2013-10-21 20:38:00,
2013-10-21 15:39:00,-999.0,-99.9,-100.00,WNW,288,12.3,18.1,-999,-99.99,,,-99.99,HOBO +U30 +Weather +,2013-10-21 20:39:00,
2013-10-21 15:40:00,-999.0,-99.9,-100.00,WNW,295,10.7,15.2,-999,-99.99,,,-99.99,HOBO +U30 +Weather +,2013-10-21 20:40:00,
2013-10-21 15:41:00,-999.0,-99.9,-100.00,WNW,292,11.9,17.4,-999,-99.99,,,-99.99,HOBO +U30 +Weather +,2013-10-21 20:41:00,
2013-10-21 15:42:00,-999.0,-99.9,-100.00,WNW,299,14.5,19.2,-999,-99.99,,,-99.99,HOBO +U30 +Weather +,2013-10-21 20:42:00,
2013-10-21 15:43:00,-999.0,-99.9,-100.00,WNW,296,16.3,23.0,-999,-99.99,,,-99.99,HOBO +U30 +Weather +,2013-10-21 20:43:00,
2013-10-21 15:44:00,-999.0,-99.9,-100.00,WNW,299,17.0,19.7,-999,-99.99,,,-99.99,HOBO +U30 +Weather +,2013-10-21 20:44:00,
2013-10-21 15:45:00,-999.0,-99.9,-100.00,WNW,298,17.0,20.4,-999,-99.99,,,-99.99,HOBO +U30 +Weather +,2013-10-21 20:45:00,
2013-10-21 15:46:00,-999.0,-99.9,-100.00,WNW,295,13.0,19.7,-999,-99.99,,,-99.99,HOBO +U30 +Weather +,2013-10-21 20:46:00,
2013-10-21 15:47:00,-999.0,-99.9,-100.00,WNW,298,15.2,22.6,-999,-99.99,,,-99.99,HOBO +U30 +Weather +,2013-10-21 20:47:00,
2013-10-21 15:48:00,-999.0,-99.9,-100.00,WNW,292,18.6,23.7,-999,-99.99,,,-99.99,HOBO +U30 +Weather +,2013-10-21 20:48:00,
2013-10-21 15:49:00,-999.0,-99.9,-100.00,WNW,295,17.0,20.4,-999,-99.99,,,-99.99,HOBO +U30 +Weather +,2013-10-21 20:49:00,
2013-10-21 15:50:00,-999.0,-99.9,-100.00,WNW,292,14.1,19.2,-999,-99.99,,,-99.99,HOBO +U30 +Weather +,2013-10-21 20:50:00,
2013-10-21 15:51:00,-999.0,-99.9,-100.00,WNW,303,13.4,18.6,-999,-99.99,,,-99.99,HOBO +U30 +Weather +,2013-10-21 20:51:00,
2013-10-21 15:52:00,-999.0,-99.9,-100.00,NW,310,13.0,17.0,-999,-99.99,,,-99.99,HOBO +U30 +Weather +,2013-10-21 20:52:00,
2013-10-21 15:53:00,-999.0,-99.9,-100.00,WNW,302,16.3,19.7,-999,-99.99,,,-99.99,HOBO +U30 +Weather +,2013-10-21 20:53:00,
2013-10-21 15:54:00,-999.0,-99.9,-100.00,WNW,296,13.0,17.4,-999,-99.99,,,-99.99,HOBO +U30 +Weather +,2013-10-21 20:54:00,
2013-10-21 15:55:00,-999.0,-99.9,-100.00,NW,305,14.5,20.4,-999,-99.99,,,-99.99,HOBO +U30 +Weather +,2013-10-21 20:55:00,
2013-10-21 15:56:00,-999.0,-99.9,-100.00,WNW,298,14.5,19.7,-999,-99.99,,,-99.99,HOBO +U30 +Weather +,2013-10-21 20:56:00,
2013-10-21 15:57:00,-999.0,-99.9,-100.00,WNW,300,14.5,20.4,-999,-99.99,,,-99.99,HOBO +U30 +Weather +,2013-10-21 20:57:00,
2013-10-21 15:58:00,-999.0,-99.9,-100.00,WNW,285,10.7,16.3,-999,-99.99,,,-99.99,HOBO +U30 +Weather +,2013-10-21 20:58:00,
2013-10-21 15:59:00,-999.0,-99.9,-100.00,WNW,298,15.9,18.6,-999,-99.99,,,-99.99,HOBO +U30 +Weather +,2013-10-21 20:59:00,
2013-10-21 16:00:00,-999.0,-99.9,-100.00,WNW,286,14.1,19.2,-999,-99.99,,,-99.99,HOBO +U30 +Weather +,2013-10-21 21:00:00,
2013-10-21 16:01:00,-999.0,-99.9,-100.00,WNW,289,14.1,18.1,-999,-99.99,,,-99.99,HOBO +U30 +Weather +,2013-10-21 21:01:00,
2013-10-21 16:02:00,-999.0,-99.9,-100.00,WNW,289,10.1,13.4,-999,-99.99,,,-99.99,HOBO +U30 +Weather +,2013-10-21 21:02:00,
2013-10-21 16:03:00,-999.0,-99.9,-100.00,West,277,8.5,10.7,-999,-99.99,,,-99.99,HOBO +U30 +Weather +,2013-10-21 21:03:00,
2013-10-21 16:04:00,-999.0,-99.9,-100.00,West,281,9.6,13.0,-999,-99.99,,,-99.99,HOBO +U30 +Weather +,2013-10-21 21:04:00,
2013-10-21 16:05:00,-999.0,-99.9,-100.00,West,279,11.9,15.9,-999,-99.99,,,-99.99,HOBO +U30 +Weather +,2013-10-21 21:05:00,
2013-10-21 16:06:00,-999.0,-99.9,-100.00,West,279,14.1,18.1,-999,-99.99,,,-99.99,HOBO +U30 +Weather +,2013-10-21 21:06:00,
2013-10-21 16:07:00,-999.0,-99.9,-100.00,WNW,286,11.9,17.0,-999,-99.99,,,-99.99,HOBO +U30 +Weather +,2013-10-21 21:07:00,
2013-10-21 16:08:00,-999.0,-99.9,-100.00,WNW,284,11.9,19.2,-999,-99.99,,,-99.99,HOBO +U30 +Weather +,2013-10-21 21:08:00,
2013-10-21 16:09:00,-999.0,-99.9,-100.00,WNW,291,9.6,12.3,-999,-99.99,,,-99.99,HOBO +U30 +Weather +,2013-10-21 21:09:00,
2013-10-21 16:10:00,-999.0,-99.9,-100.00,WNW,293,8.9,14.1,-999,-99.99,,,-99.99,HOBO +U30 +Weather +,2013-10-21 21:10:00,
2013-10-21 16:11:00,-999.0,-99.9,-100.00,WNW,295,9.6,13.0,-999,-99.99,,,-99.99,HOBO +U30 +Weather +,2013-10-21 21:11:00,
2013-10-21 16:12:00,-999.0,-99.9,-100.00,WNW,295,10.1,16.3,-999,-99.99,,,-99.99,HOBO +U30 +Weather +,2013-10-21 21:12:00,
2013-10-21 16:13:00,-999.0,-99.9,-100.00,WNW,288,8.9,11.2,-999,-99.99,,,-99.99,HOBO +U30 +Weather +,2013-10-21 21:13:00,
2013-10-21 16:14:00,-999.0,-99.9,-100.00,WNW,288,12.3,16.3,-999,-99.99,,,-99.99,HOBO +U30 +Weather +,2013-10-21 21:14:00,
2013-10-21 16:15:00,-999.0,-99.9,-100.00,WNW,288,13.0,17.4,-999,-99.99,,,-99.99,HOBO +U30 +Weather +,2013-10-21 21:15:00,
2013-10-21 16:16:00,-999.0,-99.9,-100.00,WNW,291,14.5,18.1,-999,-99.99,,,-99.99,HOBO +U30 +Weather +,2013-10-21 21:16:00,
2013-10-21 16:17:00,-999.0,-99.9,-100.00,WNW,295,13.0,18.6,-999,-99.99,,,-99.99,HOBO +U30 +Weather +,2013-10-21 21:17:00,
2013-10-21 16:18:00,-999.0,-99.9,-100.00,WNW,293,11.2,14.1,-999,-99.99,,,-99.99,HOBO +U30 +Weather +,2013-10-21 21:18:00,
2013-10-21 16:19:00,-999.0,-99.9,-100.00,WNW,291,10.7,15.9,-999,-99.99,,,-99.99,HOBO +U30 +Weather +,2013-10-21 21:19:00,
2013-10-21 16:20:00,-999.0,-99.9,-100.00,West,281,9.6,12.3,-999,-99.99,,,-99.99,HOBO +U30 +Weather +,2013-10-21 21:20:00,
2013-10-21 16:21:00,-999.0,-99.9,-100.00,WNW,284,8.9,14.1,-999,-99.99,,,-99.99,HOBO +U30 +Weather +,2013-10-21 21:21:00,
2013-10-21 16:22:00,-999.0,-99.9,-100.00,WNW,291,11.9,17.4,-999,-99.99,,,-99.99,HOBO +U30 +Weather +,2013-10-21 21:22:00,
2013-10-21 16:23:00,-999.0,-99.9,-100.00,WNW,286,13.0,17.4,-999,-99.99,,,-99.99,HOBO +U30 +Weather +,2013-10-21 21:23:00,
2013-10-21 16:24:00,-999.0,-99.9,-100.00,WNW,282,12.3,17.0,-999,-99.99,,,-99.99,HOBO +U30 +Weather +,2013-10-21 21:24:00,
2013-10-21 16:25:00,-999.0,-99.9,-100.00,West,279,10.1,14.1,-999,-99.99,,,-99.99,HOBO +U30 +Weather +,2013-10-21 21:25:00,
2013-10-21 16:26:00,-999.0,-99.9,-100.00,WNW,286,9.6,12.3,-999,-99.99,,,-99.99,HOBO +U30 +Weather +,2013-10-21 21:26:00,
2013-10-21 16:27:00,-999.0,-99.9,-100.00,WNW,288,13.0,18.1,-999,-99.99,,,-99.99,HOBO +U30 +Weather +,2013-10-21 21:27:00,
2013-10-21 16:28:00,-999.0,-99.9,-100.00,WNW,298,11.9,15.2,-999,-99.99,,,-99.99,HOBO +U30 +Weather +,2013-10-21 21:28:00,
2013-10-21 16:29:00,-999.0,-99.9,-100.00,WNW,292,10.1,13.0,-999,-99.99,,,-99.99,HOBO +U30 +Weather +,2013-10-21 21:29:00,
2013-10-21 16:30:00,-999.0,-99.9,-100.00,WNW,291,11.9,14.5,-999,-99.99,,,-99.99,HOBO +U30 +Weather +,2013-10-21 21:30:00,
2013-10-21 16:31:00,-999.0,-99.9,-100.00,WNW,292,8.5,10.7,-999,-99.99,,,-99.99,HOBO +U30 +Weather +,2013-10-21 21:31:00,
2013-10-21 16:32:00,-999.0,-99.9,-100.00,WNW,299,7.8,10.1,-999,-99.99,,,-99.99,HOBO +U30 +Weather +,2013-10-21 21:32:00,
2013-10-21 16:33:00,-999.0,-99.9,-100.00,WNW,289,7.8,11.2,-999,-99.99,,,-99.99,HOBO +U30 +Weather +,2013-10-21 21:33:00,
2013-10-21 16:34:00,-999.0,-99.9,-100.00,WNW,293,8.9,13.0,-999,-99.99,,,-99.99,HOBO +U30 +Weather +,2013-10-21 21:34:00,
2013-10-21 16:35:00,-999.0,-99.9,-100.00,WNW,292,11.9,15.9,-999,-99.99,,,-99.99,HOBO +U30 +Weather +,2013-10-21 21:35:00,
2013-10-21 16:36:00,-999.0,-99.9,-100.00,WNW,295,11.2,15.2,-999,-99.99,,,-99.99,HOBO +U30 +Weather +,2013-10-21 21:36:00,
2013-10-21 16:37:00,-999.0,-99.9,-100.00,WNW,291,10.1,13.4,-999,-99.99,,,-99.99,HOBO +U30 +Weather +,2013-10-21 21:37:00,
2013-10-21 16:38:00,-999.0,-99.9,-100.00,WNW,295,9.6,14.5,-999,-99.99,,,-99.99,HOBO +U30 +Weather +,2013-10-21 21:38:00,
2013-10-21 16:39:00,-999.0,-99.9,-100.00,WNW,302,8.5,10.1,-999,-99.99,,,-99.99,HOBO +U30 +Weather +,2013-10-21 21:39:00,
2013-10-21 16:40:00,-999.0,-99.9,-100.00,WNW,291,8.5,10.7,-999,-99.99,,,-99.99,HOBO +U30 +Weather +,2013-10-21 21:40:00,
2013-10-21 16:41:00,-999.0,-99.9,-100.00,WNW,289,7.8,11.2,-999,-99.99,,,-99.99,HOBO +U30 +Weather +,2013-10-21 21:41:00,
2013-10-21 16:42:00,-999.0,-99.9,-100.00,WNW,284,10.1,14.1,-999,-99.99,,,-99.99,HOBO +U30 +Weather +,2013-10-21 21:42:00,
2013-10-21 16:43:00,-999.0,-99.9,-100.00,West,279,8.9,12.3,-999,-99.99,,,-99.99,HOBO +U30 +Weather +,2013-10-21 21:43:00,
2013-10-21 16:44:00,-999.0,-99.9,-100.00,WNW,296,8.5,10.7,-999,-99.99,,,-99.99,HOBO +U30 +Weather +,2013-10-21 21:44:00,
2013-10-21 16:45:00,-999.0,-99.9,-100.00,WNW,295,7.4,9.6,-999,-99.99,,,-99.99,HOBO +U30 +Weather +,2013-10-21 21:45:00,
2013-10-21 16:46:00,-999.0,-99.9,-100.00,WNW,289,10.7,15.2,-999,-99.99,,,-99.99,HOBO +U30 +Weather +,2013-10-21 21:46:00,
2013-10-21 16:47:00,-999.0,-99.9,-100.00,WNW,300,11.2,15.9,-999,-99.99,,,-99.99,HOBO +U30 +Weather +,2013-10-21 21:47:00,
2013-10-21 16:48:00,-999.0,-99.9,-100.00,WNW,295,9.6,12.3,-999,-99.99,,,-99.99,HOBO +U30 +Weather +,2013-10-21 21:48:00,
2013-10-21 16:49:00,-999.0,-99.9,-100.00,WNW,295,8.5,10.7,-999,-99.99,,,-99.99,HOBO +U30 +Weather +,2013-10-21 21:49:00,
2013-10-21 16:50:00,-999.0,-99.9,-100.00,WNW,289,13.0,16.3,-999,-99.99,,,-99.99,HOBO +U30 +Weather +,2013-10-21 21:50:00,
2013-10-21 17:00:00,-999.0,-99.9,-100.00,WNW,286,13.4,19.2,-999,-99.99,,,-99.99,HOBO +U30 +Weather +,2013-10-21 22:00:00,
2013-10-21 17:01:00,-999.0,-99.9,-100.00,WNW,284,8.5,11.9,-999,-99.99,,,-99.99,HOBO +U30 +Weather +,2013-10-21 22:01:00,
2013-10-21 17:10:00,-999.0,-99.9,-100.00,WNW,285,11.2,14.5,-999,-99.99,,,-99.99,HOBO +U30 +Weather +,2013-10-21 22:10:00,
2013-10-21 17:11:00,-999.0,-99.9,-100.00,WNW,285,8.9,12.3,-999,-99.99,,,-99.99,HOBO +U30 +Weather +,2013-10-21 22:11:00,
2013-10-21 17:20:00,-999.0,-99.9,-100.00,WNW,293,10.7,14.1,-999,-99.99,,,-99.99,HOBO +U30 +Weather +,2013-10-21 22:20:00,
2013-10-21 17:21:00,-999.0,-99.9,-100.00,WNW,295,9.6,12.3,-999,-99.99,,,-99.99,HOBO +U30 +Weather +,2013-10-21 22:21:00,
2013-10-21 17:31:00,-999.0,-99.9,-100.00,WNW,300,12.3,17.0,-999,-99.99,,,-99.99,HOBO +U30 +Weather +,2013-10-21 22:31:00,
2013-10-21 17:41:00,-999.0,-99.9,-100.00,WNW,291,9.6,13.0,-999,-99.99,,,-99.99,HOBO +U30 +Weather +,2013-10-21 22:41:00,
2013-10-21 17:42:00,-999.0,-99.9,-100.00,WNW,286,8.5,12.3,-999,-99.99,,,-99.99,HOBO +U30 +Weather +,2013-10-21 22:42:00,
2013-10-21 17:52:00,-999.0,-99.9,-100.00,WNW,298,11.9,18.1,-999,-99.99,,,-99.99,HOBO +U30 +Weather +,2013-10-21 22:52:00,
2013-10-21 18:02:00,-999.0,-99.9,-100.00,WNW,303,10.1,14.1,-999,-99.99,,,-99.99,HOBO +U30 +Weather +,2013-10-21 23:02:00,
2013-10-21 18:03:00,-999.0,-99.9,-100.00,WNW,300,9.6,12.3,-999,-99.99,,,-99.99,HOBO +U30 +Weather +,2013-10-21 23:03:00,
2013-10-21 18:04:00,-999.0,-99.9,-100.00,NW,306,10.1,13.0,-999,-99.99,,,-99.99,HOBO +U30 +Weather +,2013-10-21 23:04:00,
2013-10-21 18:13:00,-999.0,-99.9,-100.00,NW,305,8.9,11.2,-999,-99.99,,,-99.99,HOBO +U30 +Weather +,2013-10-21 23:13:00,
2013-10-21 18:14:00,-999.0,-99.9,-100.00,WNW,296,9.6,13.4,-999,-99.99,,,-99.99,HOBO +U30 +Weather +,2013-10-21 23:14:00,
2013-10-21 18:23:00,-999.0,-99.9,-100.00,NW,305,8.5,11.2,-999,-99.99,,,-99.99,HOBO +U30 +Weather +,2013-10-21 23:23:00,
2013-10-21 18:24:00,-999.0,-99.9,-100.00,WNW,300,6.7,8.5,-999,-99.99,,,-99.99,HOBO +U30 +Weather +,2013-10-21 23:24:00,
2013-10-21 18:34:00,-999.0,-99.9,-100.00,NW,309,8.9,10.7,-999,-99.99,,,-99.99,HOBO +U30 +Weather +,2013-10-21 23:34:00,
2013-10-21 18:35:00,-999.0,-99.9,-100.00,WNW,289,5.6,7.4,-999,-99.99,,,-99.99,HOBO +U30 +Weather +,2013-10-21 23:35:00,
2013-10-21 18:36:00,-999.0,-99.9,-100.00,WNW,295,5.1,6.3,-999,-99.99,,,-99.99,HOBO +U30 +Weather +,2013-10-21 23:36:00,
2013-10-21 18:45:00,-999.0,-99.9,-100.00,WNW,292,6.3,7.4,-999,-99.99,,,-99.99,HOBO +U30 +Weather +,2013-10-21 23:45:00,
2013-10-21 18:46:00,-999.0,-99.9,-100.00,WNW,292,5.6,7.4,-999,-99.99,,,-99.99,HOBO +U30 +Weather +,2013-10-21 23:46:00,
2013-10-21 18:55:00,-999.0,-99.9,-100.00,WNW,295,6.3,6.7,-999,-99.99,,,-99.99,HOBO +U30 +Weather +,2013-10-21 23:55:00,
2013-10-21 18:56:00,-999.0,-99.9,-100.00,WNW,291,6.3,8.5,-999,-99.99,,,-99.99,HOBO +U30 +Weather +,2013-10-21 23:56:00,
2013-10-21 19:06:00,-999.0,-99.9,-100.00,WNW,282,5.6,8.5,-999,-99.99,,,-99.99,HOBO +U30 +Weather +,2013-10-22 00:06:00,
2013-10-21 19:07:00,-999.0,-99.9,-100.00,WNW,285,4.0,5.6,-999,-99.99,,,-99.99,HOBO +U30 +Weather +,2013-10-22 00:07:00,
2013-10-21 19:17:00,-999.0,-99.9,-100.00,WNW,282,5.1,7.4,-999,-99.99,,,-99.99,HOBO +U30 +Weather +,2013-10-22 00:17:00,
2013-10-21 19:27:00,-999.0,-99.9,-100.00,WNW,288,6.7,10.1,-999,-99.99,,,-99.99,HOBO +U30 +Weather +,2013-10-22 00:27:00,
2013-10-21 19:28:00,-999.0,-99.9,-100.00,WNW,289,5.1,7.8,-999,-99.99,,,-99.99,HOBO +U30 +Weather +,2013-10-22 00:28:00,
2013-10-21 19:38:00,-999.0,-99.9,-100.00,WNW,295,4.5,5.6,-999,-99.99,,,-99.99,HOBO +U30 +Weather +,2013-10-22 00:38:00,
2013-10-21 19:39:00,-999.0,-99.9,-100.00,WNW,291,4.0,6.3,-999,-99.99,,,-99.99,HOBO +U30 +Weather +,2013-10-22 00:39:00,
2013-10-21 19:49:00,-999.0,-99.9,-100.00,WNW,291,4.0,4.5,-999,-99.99,,,-99.99,HOBO +U30 +Weather +,2013-10-22 00:49:00,
2013-10-21 19:50:00,-999.0,-99.9,-100.00,WNW,291,4.5,6.3,-999,-99.99,,,-99.99,HOBO +U30 +Weather +,2013-10-22 00:50:00,
2013-10-21 20:00:00,-999.0,-99.9,-100.00,WNW,286,4.5,6.7,-999,-99.99,,,-99.99,HOBO +U30 +Weather +,2013-10-22 01:00:00,
2013-10-21 20:01:00,-999.0,-99.9,-100.00,WNW,289,4.5,5.6,-999,-99.99,,,-99.99,HOBO +U30 +Weather +,2013-10-22 01:01:00,
2013-10-21 20:11:00,-999.0,-99.9,-100.00,West,281,3.4,5.1,-999,-99.99,,,-99.99,HOBO +U30 +Weather +,2013-10-22 01:11:00,
2013-10-21 20:21:00,-999.0,-99.9,-100.00,WNW,282,5.1,6.7,-999,-99.99,,,-99.99,HOBO +U30 +Weather +,2013-10-22 01:21:00,
2013-10-21 20:22:00,-999.0,-99.9,-100.00,West,275,5.1,6.7,-999,-99.99,,,-99.99,HOBO +U30 +Weather +,2013-10-22 01:22:00,
2013-10-21 20:32:00,-999.0,-99.9,-100.00,West,279,5.1,7.8,-999,-99.99,,,-99.99,HOBO +U30 +Weather +,2013-10-22 01:32:00,
2013-10-21 20:33:00,-999.0,-99.9,-100.00,West,270,3.4,5.1,-999,-99.99,,,-99.99,HOBO +U30 +Weather +,2013-10-22 01:33:00,
2013-10-21 20:43:00,-999.0,-99.9,-100.00,WSW,254,3.4,4.5,-999,-99.99,,,-99.99,HOBO +U30 +Weather +,2013-10-22 01:43:00,
2013-10-21 20:44:00,-999.0,-99.9,-100.00,WSW,257,5.1,7.4,-999,-99.99,,,-99.99,HOBO +U30 +Weather +,2013-10-22 01:44:00,
2013-10-21 20:54:00,-999.0,-99.9,-100.00,WSW,257,5.1,6.7,-999,-99.99,,,-99.99,HOBO +U30 +Weather +,2013-10-22 01:54:00,
2013-10-21 20:55:00,-999.0,-99.9,-100.00,WSW,241,5.1,7.4,-999,-99.99,,,-99.99,HOBO +U30 +Weather +,2013-10-22 01:55:00,
2013-10-21 21:05:00,-999.0,-99.9,-100.00,WSW,251,5.6,7.8,-999,-99.99,,,-99.99,HOBO +U30 +Weather +,2013-10-22 02:05:00,
2013-10-21 21:15:00,-999.0,-99.9,-100.00,WSW,258,4.0,5.6,-999,-99.99,,,-99.99,HOBO +U30 +Weather +,2013-10-22 02:15:00,
2013-10-21 21:25:00,-999.0,-99.9,-100.00,WSW,256,5.1,6.3,-999,-99.99,,,-99.99,HOBO +U30 +Weather +,2013-10-22 02:25:00,
2013-10-21 21:35:00,-999.0,-99.9,-100.00,West,265,4.0,5.6,-999,-99.99,,,-99.99,HOBO +U30 +Weather +,2013-10-22 02:35:00,
2013-10-21 21:45:00,-999.0,-99.9,-100.00,West,260,4.0,6.3,-999,-99.99,,,-99.99,HOBO +U30 +Weather +,2013-10-22 02:45:00,
2013-10-21 21:55:00,-999.0,-99.9,-100.00,WSW,254,4.5,6.7,-999,-99.99,,,-99.99,HOBO +U30 +Weather +,2013-10-22 02:55:00,
2013-10-21 22:05:00,-999.0,-99.9,-100.00,West,260,5.1,6.3,-999,-99.99,,,-99.99,HOBO +U30 +Weather +,2013-10-22 03:05:00,
2013-10-21 22:15:00,-999.0,-99.9,-100.00,WSW,254,6.3,7.4,-999,-99.99,,,-99.99,HOBO +U30 +Weather +,2013-10-22 03:15:00,
2013-10-21 22:25:00,-999.0,-99.9,-100.00,WSW,248,4.0,5.6,-999,-99.99,,,-99.99,HOBO +U30 +Weather +,2013-10-22 03:25:00,
2013-10-21 22:35:00,-999.0,-99.9,-100.00,WSW,257,5.6,7.4,-999,-99.99,,,-99.99,HOBO +U30 +Weather +,2013-10-22 03:35:00,
2013-10-21 22:45:00,-999.0,-99.9,-100.00,West,267,5.1,8.9,-999,-99.99,,,-99.99,HOBO +U30 +Weather +,2013-10-22 03:45:00,
2013-10-21 22:46:00,-999.0,-99.9,-100.00,West,278,5.1,6.7,-999,-99.99,,,-99.99,HOBO +U30 +Weather +,2013-10-22 03:46:00,
2013-10-21 22:56:00,-999.0,-99.9,-100.00,West,278,6.3,7.8,-999,-99.99,,,-99.99,HOBO +U30 +Weather +,2013-10-22 03:56:00,
2013-10-21 23:06:00,-999.0,-99.9,-100.00,West,277,5.6,8.9,-999,-99.99,,,-99.99,HOBO +U30 +Weather +,2013-10-22 04:06:00,
2013-10-21 23:16:00,-999.0,-99.9,-100.00,West,281,5.6,8.5,-999,-99.99,,,-99.99,HOBO +U30 +Weather +,2013-10-22 04:16:00,
2013-10-21 23:17:00,-999.0,-99.9,-100.00,WNW,291,5.1,7.8,-999,-99.99,,,-99.99,HOBO +U30 +Weather +,2013-10-22 04:17:00,
2013-10-21 23:27:00,-999.0,-99.9,-100.00,WNW,291,4.5,6.3,-999,-99.99,,,-99.99,HOBO +U30 +Weather +,2013-10-22 04:27:00,
2013-10-21 23:28:00,-999.0,-99.9,-100.00,West,278,4.0,6.3,-999,-99.99,,,-99.99,HOBO +U30 +Weather +,2013-10-22 04:28:00,
2013-10-21 23:37:00,-999.0,-99.9,-100.00,WSW,258,3.4,4.5,-999,-99.99,,,-99.99,HOBO +U30 +Weather +,2013-10-22 04:37:00,
2013-10-21 23:38:00,-999.0,-99.9,-100.00,West,271,3.4,5.1,-999,-99.99,,,-99.99,HOBO +U30 +Weather +,2013-10-22 04:38:00,
2013-10-21 23:47:00,-999.0,-99.9,-100.00,WSW,256,4.0,6.3,-999,-99.99,,,-99.99,HOBO +U30 +Weather +,2013-10-22 04:47:00,
2013-10-21 23:48:00,-999.0,-99.9,-100.00,WSW,254,4.5,6.3,-999,-99.99,,,-99.99,HOBO +U30 +Weather +,2013-10-22 04:48:00,
2013-10-21 23:58:00,-999.0,-99.9,-100.00,West,270,2.9,4.5,-999,-99.99,,,-99.99,HOBO +U30 +Weather +,2013-10-22 04:58:00,